<?xml version="1.0" encoding="UTF-8" standalone="no" ?>
<gpx xmlns="http://www.topografix.com/GPX/1/1" xmlns:xsi="http://www.w3.org/2001/XMLSchema-instance" xsi:schemaLocation="http://www.topografix.com/GPX/1/1 http://www.topografix.com/GPX/1/1/gpx.xsd" version="1.1" creator="VisuGPX - https://www.visugpx.com">
  <metadata>
    <name>Via podiensis Le Puy-Cahors</name>
  </metadata>
  <trk>
    <name><![CDATA[Via podiensis Le Puy-Cahors_5]]></name>
    <trkseg>
      <trkpt lat="44.59945" lon="2.39748">
        <ele>285.4296875</ele>
        <time>2012-06-07T23:58:48Z</time>
      </trkpt>
      <trkpt lat="44.59921" lon="2.39721">
        <ele>275.94921875</ele>
        <time>2012-06-07T23:59:08Z</time>
      </trkpt>
      <trkpt lat="44.59907" lon="2.39717">
        <ele>269.3828125</ele>
        <time>2012-06-07T23:59:28Z</time>
      </trkpt>
      <trkpt lat="44.59887" lon="2.39572">
        <ele>261.20703125</ele>
        <time>2012-06-07T23:59:48Z</time>
      </trkpt>
      <trkpt lat="44.59822" lon="2.39468">
        <ele>240.0234375</ele>
        <time>2012-06-08T00:00:08Z</time>
      </trkpt>
      <trkpt lat="44.59814" lon="2.39381">
        <ele>239.6015625</ele>
        <time>2012-06-08T00:00:28Z</time>
      </trkpt>
      <trkpt lat="44.59821" lon="2.39345">
        <ele>236.13671875</ele>
        <time>2012-06-08T00:00:48Z</time>
      </trkpt>
      <trkpt lat="44.59808" lon="2.3931">
        <ele>228.421875</ele>
        <time>2012-06-08T00:01:08Z</time>
      </trkpt>
      <trkpt lat="44.59825" lon="2.39214">
        <ele>223.0859375</ele>
        <time>2012-06-08T00:01:28Z</time>
      </trkpt>
      <trkpt lat="44.59802" lon="2.39137">
        <ele>240.05859375</ele>
        <time>2012-06-08T00:01:48Z</time>
      </trkpt>
      <trkpt lat="44.59773" lon="2.3911">
        <ele>250.265625</ele>
        <time>2012-06-08T00:02:08Z</time>
      </trkpt>
      <trkpt lat="44.59785" lon="2.391">
        <ele>248.3828125</ele>
        <time>2012-06-08T00:02:28Z</time>
      </trkpt>
      <trkpt lat="44.59787" lon="2.39047">
        <ele>264.63671875</ele>
        <time>2012-06-08T00:02:48Z</time>
      </trkpt>
      <trkpt lat="44.59728" lon="2.38949">
        <ele>286.078125</ele>
        <time>2012-06-08T00:03:08Z</time>
      </trkpt>
      <trkpt lat="44.59677" lon="2.38928">
        <ele>317.203125</ele>
        <time>2012-06-08T00:03:28Z</time>
      </trkpt>
      <trkpt lat="44.59602" lon="2.38706">
        <ele>386.19921875</ele>
        <time>2012-06-08T00:03:48Z</time>
      </trkpt>
      <trkpt lat="44.59573" lon="2.38769">
        <ele>408.02734375</ele>
        <time>2012-06-08T00:04:08Z</time>
      </trkpt>
      <trkpt lat="44.59557" lon="2.38926">
        <ele>413.31640625</ele>
        <time>2012-06-08T00:04:28Z</time>
      </trkpt>
      <trkpt lat="44.59538" lon="2.38934">
        <ele>419.61328125</ele>
        <time>2012-06-08T00:04:48Z</time>
      </trkpt>
      <trkpt lat="44.59442" lon="2.38872">
        <ele>454.35546875</ele>
        <time>2012-06-08T00:05:08Z</time>
      </trkpt>
      <trkpt lat="44.59321" lon="2.38783">
        <ele>455.16015625</ele>
        <time>2012-06-08T00:05:28Z</time>
      </trkpt>
      <trkpt lat="44.59326" lon="2.38761">
        <ele>458.71484375</ele>
        <time>2012-06-08T00:05:48Z</time>
      </trkpt>
      <trkpt lat="44.5935" lon="2.38764">
        <ele>467.703125</ele>
        <time>2012-06-08T00:06:08Z</time>
      </trkpt>
      <trkpt lat="44.59345" lon="2.38739">
        <ele>467.91796875</ele>
        <time>2012-06-08T00:06:28Z</time>
      </trkpt>
      <trkpt lat="44.59393" lon="2.38624">
        <ele>494.953125</ele>
        <time>2012-06-08T00:06:48Z</time>
      </trkpt>
      <trkpt lat="44.5941" lon="2.38549">
        <ele>502.12109375</ele>
        <time>2012-06-08T00:07:08Z</time>
      </trkpt>
      <trkpt lat="44.59328" lon="2.38432">
        <ele>521.375</ele>
        <time>2012-06-08T00:07:28Z</time>
      </trkpt>
      <trkpt lat="44.59305" lon="2.38363">
        <ele>528.03515625</ele>
        <time>2012-06-08T00:07:48Z</time>
      </trkpt>
      <trkpt lat="44.59306" lon="2.38321">
        <ele>529.46875</ele>
        <time>2012-06-08T00:08:08Z</time>
      </trkpt>
      <trkpt lat="44.59263" lon="2.38164">
        <ele>528.5390625</ele>
        <time>2012-06-08T00:08:28Z</time>
      </trkpt>
      <trkpt lat="44.59241" lon="2.38014">
        <ele>540.01953125</ele>
        <time>2012-06-08T00:08:48Z</time>
      </trkpt>
      <trkpt lat="44.59209" lon="2.37914">
        <ele>538.046875</ele>
        <time>2012-06-08T00:09:08Z</time>
      </trkpt>
      <trkpt lat="44.59277" lon="2.37853">
        <ele>541.6328125</ele>
        <time>2012-06-08T00:09:28Z</time>
      </trkpt>
      <trkpt lat="44.59306" lon="2.37772">
        <ele>546.3359375</ele>
        <time>2012-06-08T00:09:48Z</time>
      </trkpt>
      <trkpt lat="44.59395" lon="2.37686">
        <ele>545.89453125</ele>
        <time>2012-06-08T00:10:08Z</time>
      </trkpt>
      <trkpt lat="44.59382" lon="2.37676">
        <ele>545.98828125</ele>
        <time>2012-06-08T00:10:28Z</time>
      </trkpt>
      <trkpt lat="44.59377" lon="2.37594">
        <ele>539.05859375</ele>
        <time>2012-06-08T00:10:48Z</time>
      </trkpt>
      <trkpt lat="44.59329" lon="2.37543">
        <ele>535.8125</ele>
        <time>2012-06-08T00:11:08Z</time>
      </trkpt>
      <trkpt lat="44.59309" lon="2.3751">
        <ele>532.83984375</ele>
        <time>2012-06-08T00:11:28Z</time>
      </trkpt>
      <trkpt lat="44.59263" lon="2.37484">
        <ele>535.83984375</ele>
        <time>2012-06-08T00:11:48Z</time>
      </trkpt>
      <trkpt lat="44.59258" lon="2.37419">
        <ele>531.25</ele>
        <time>2012-06-08T00:12:08Z</time>
      </trkpt>
      <trkpt lat="44.59274" lon="2.37318">
        <ele>525.50390625</ele>
        <time>2012-06-08T00:12:28Z</time>
      </trkpt>
      <trkpt lat="44.59317" lon="2.37146">
        <ele>508.78515625</ele>
        <time>2012-06-08T00:12:48Z</time>
      </trkpt>
      <trkpt lat="44.59329" lon="2.3707">
        <ele>501.859375</ele>
        <time>2012-06-08T00:13:08Z</time>
      </trkpt>
      <trkpt lat="44.59306" lon="2.36961">
        <ele>486.33203125</ele>
        <time>2012-06-08T00:13:28Z</time>
      </trkpt>
      <trkpt lat="44.5928" lon="2.36946">
        <ele>482.5703125</ele>
        <time>2012-06-08T00:13:48Z</time>
      </trkpt>
      <trkpt lat="44.59244" lon="2.36973">
        <ele>485.1875</ele>
        <time>2012-06-08T00:14:08Z</time>
      </trkpt>
      <trkpt lat="44.59213" lon="2.36967">
        <ele>475.359375</ele>
        <time>2012-06-08T00:14:28Z</time>
      </trkpt>
      <trkpt lat="44.59163" lon="2.37062">
        <ele>473.0703125</ele>
        <time>2012-06-08T00:14:48Z</time>
      </trkpt>
      <trkpt lat="44.591" lon="2.37141">
        <ele>470.1171875</ele>
        <time>2012-06-08T00:15:08Z</time>
      </trkpt>
      <trkpt lat="44.59054" lon="2.37162">
        <ele>471.546875</ele>
        <time>2012-06-08T00:15:28Z</time>
      </trkpt>
      <trkpt lat="44.59029" lon="2.37148">
        <ele>468.91796875</ele>
        <time>2012-06-08T00:15:48Z</time>
      </trkpt>
      <trkpt lat="44.58943" lon="2.37133">
        <ele>474.1015625</ele>
        <time>2012-06-08T00:16:08Z</time>
      </trkpt>
      <trkpt lat="44.58838" lon="2.37153">
        <ele>491.1484375</ele>
        <time>2012-06-08T00:16:28Z</time>
      </trkpt>
      <trkpt lat="44.58833" lon="2.37139">
        <ele>493.80078125</ele>
        <time>2012-06-08T00:16:48Z</time>
      </trkpt>
      <trkpt lat="44.58897" lon="2.37085">
        <ele>495.3515625</ele>
        <time>2012-06-08T00:17:08Z</time>
      </trkpt>
      <trkpt lat="44.5895" lon="2.37072">
        <ele>490.47265625</ele>
        <time>2012-06-08T00:17:28Z</time>
      </trkpt>
      <trkpt lat="44.59019" lon="2.37026">
        <ele>490.62109375</ele>
        <time>2012-06-08T00:17:48Z</time>
      </trkpt>
      <trkpt lat="44.59059" lon="2.36962">
        <ele>480.76953125</ele>
        <time>2012-06-08T00:18:08Z</time>
      </trkpt>
      <trkpt lat="44.59047" lon="2.36903">
        <ele>472.71875</ele>
        <time>2012-06-08T00:18:28Z</time>
      </trkpt>
      <trkpt lat="44.58979" lon="2.36858">
        <ele>485.609375</ele>
        <time>2012-06-08T00:18:48Z</time>
      </trkpt>
      <trkpt lat="44.58974" lon="2.36831">
        <ele>489.92578125</ele>
        <time>2012-06-08T00:19:08Z</time>
      </trkpt>
      <trkpt lat="44.59098" lon="2.36686">
        <ele>478.203125</ele>
        <time>2012-06-08T00:19:28Z</time>
      </trkpt>
      <trkpt lat="44.59069" lon="2.36621">
        <ele>475.734375</ele>
        <time>2012-06-08T00:19:48Z</time>
      </trkpt>
      <trkpt lat="44.59058" lon="2.36587">
        <ele>474.12109375</ele>
        <time>2012-06-08T00:20:08Z</time>
      </trkpt>
      <trkpt lat="44.58938" lon="2.36622">
        <ele>497.9375</ele>
        <time>2012-06-08T00:20:28Z</time>
      </trkpt>
      <trkpt lat="44.58931" lon="2.36604">
        <ele>499.5703125</ele>
        <time>2012-06-08T00:20:48Z</time>
      </trkpt>
      <trkpt lat="44.58943" lon="2.3657">
        <ele>497.65625</ele>
        <time>2012-06-08T00:21:08Z</time>
      </trkpt>
      <trkpt lat="44.58893" lon="2.36509">
        <ele>511.67578125</ele>
        <time>2012-06-08T00:21:28Z</time>
      </trkpt>
      <trkpt lat="44.58899" lon="2.36494">
        <ele>512.84765625</ele>
        <time>2012-06-08T00:21:48Z</time>
      </trkpt>
      <trkpt lat="44.58971" lon="2.36486">
        <ele>511.94140625</ele>
        <time>2012-06-08T00:22:08Z</time>
      </trkpt>
      <trkpt lat="44.58972" lon="2.36473">
        <ele>515.140625</ele>
        <time>2012-06-08T00:22:28Z</time>
      </trkpt>
      <trkpt lat="44.58939" lon="2.36473">
        <ele>518</ele>
        <time>2012-06-08T00:22:48Z</time>
      </trkpt>
      <trkpt lat="44.58812" lon="2.36412">
        <ele>534.83984375</ele>
        <time>2012-06-08T00:23:08Z</time>
      </trkpt>
      <trkpt lat="44.58701" lon="2.36417">
        <ele>543</ele>
        <time>2012-06-08T00:23:28Z</time>
      </trkpt>
      <trkpt lat="44.5874" lon="2.36359">
        <ele>542</ele>
        <time>2012-06-08T00:23:48Z</time>
      </trkpt>
      <trkpt lat="44.58827" lon="2.36243">
        <ele>538.0390625</ele>
        <time>2012-06-08T00:24:08Z</time>
      </trkpt>
      <trkpt lat="44.58855" lon="2.36171">
        <ele>538.52734375</ele>
        <time>2012-06-08T00:24:28Z</time>
      </trkpt>
      <trkpt lat="44.58849" lon="2.36117">
        <ele>535.88671875</ele>
        <time>2012-06-08T00:24:48Z</time>
      </trkpt>
      <trkpt lat="44.58879" lon="2.35809">
        <ele>536.87109375</ele>
        <time>2012-06-08T00:25:08Z</time>
      </trkpt>
      <trkpt lat="44.5888" lon="2.35699">
        <ele>535.43359375</ele>
        <time>2012-06-08T00:25:28Z</time>
      </trkpt>
      <trkpt lat="44.58849" lon="2.35345">
        <ele>541.37890625</ele>
        <time>2012-06-08T00:25:48Z</time>
      </trkpt>
      <trkpt lat="44.58868" lon="2.35227">
        <ele>536.6953125</ele>
        <time>2012-06-08T00:26:08Z</time>
      </trkpt>
      <trkpt lat="44.58897" lon="2.35112">
        <ele>530.27734375</ele>
        <time>2012-06-08T00:26:28Z</time>
      </trkpt>
      <trkpt lat="44.58914" lon="2.34916">
        <ele>532.71875</ele>
        <time>2012-06-08T00:26:48Z</time>
      </trkpt>
      <trkpt lat="44.58854" lon="2.3476">
        <ele>527.40234375</ele>
        <time>2012-06-08T00:27:08Z</time>
      </trkpt>
      <trkpt lat="44.58824" lon="2.34717">
        <ele>524.85546875</ele>
        <time>2012-06-08T00:27:28Z</time>
      </trkpt>
      <trkpt lat="44.58789" lon="2.34729">
        <ele>513.05078125</ele>
        <time>2012-06-08T00:27:48Z</time>
      </trkpt>
      <trkpt lat="44.58744" lon="2.3466">
        <ele>498.55078125</ele>
        <time>2012-06-08T00:28:08Z</time>
      </trkpt>
      <trkpt lat="44.58722" lon="2.34605">
        <ele>490.046875</ele>
        <time>2012-06-08T00:28:28Z</time>
      </trkpt>
      <trkpt lat="44.58727" lon="2.3455">
        <ele>486.65625</ele>
        <time>2012-06-08T00:28:48Z</time>
      </trkpt>
      <trkpt lat="44.58759" lon="2.34444">
        <ele>480.2578125</ele>
        <time>2012-06-08T00:29:08Z</time>
      </trkpt>
      <trkpt lat="44.58777" lon="2.34327">
        <ele>467.95703125</ele>
        <time>2012-06-08T00:29:28Z</time>
      </trkpt>
      <trkpt lat="44.58779" lon="2.34272">
        <ele>465.12109375</ele>
        <time>2012-06-08T00:29:48Z</time>
      </trkpt>
      <trkpt lat="44.58771" lon="2.34246">
        <ele>461.765625</ele>
        <time>2012-06-08T00:30:08Z</time>
      </trkpt>
      <trkpt lat="44.58789" lon="2.34151">
        <ele>458.95703125</ele>
        <time>2012-06-08T00:30:28Z</time>
      </trkpt>
      <trkpt lat="44.58784" lon="2.3411">
        <ele>453.421875</ele>
        <time>2012-06-08T00:30:48Z</time>
      </trkpt>
      <trkpt lat="44.58818" lon="2.33933">
        <ele>454.515625</ele>
        <time>2012-06-08T00:31:08Z</time>
      </trkpt>
      <trkpt lat="44.58928" lon="2.33879">
        <ele>465.2578125</ele>
        <time>2012-06-08T00:31:28Z</time>
      </trkpt>
      <trkpt lat="44.58993" lon="2.33877">
        <ele>461.85546875</ele>
        <time>2012-06-08T00:31:48Z</time>
      </trkpt>
      <trkpt lat="44.59049" lon="2.3383">
        <ele>455.58203125</ele>
        <time>2012-06-08T00:32:08Z</time>
      </trkpt>
      <trkpt lat="44.59121" lon="2.33783">
        <ele>463.56640625</ele>
        <time>2012-06-08T00:32:28Z</time>
      </trkpt>
      <trkpt lat="44.59143" lon="2.33729">
        <ele>460.2265625</ele>
        <time>2012-06-08T00:32:48Z</time>
      </trkpt>
      <trkpt lat="44.59203" lon="2.33721">
        <ele>468.94140625</ele>
        <time>2012-06-08T00:33:08Z</time>
      </trkpt>
      <trkpt lat="44.59232" lon="2.33726">
        <ele>474.40625</ele>
        <time>2012-06-08T00:33:28Z</time>
      </trkpt>
      <trkpt lat="44.59204" lon="2.33651">
        <ele>465.6015625</ele>
        <time>2012-06-08T00:33:48Z</time>
      </trkpt>
      <trkpt lat="44.59191" lon="2.33588">
        <ele>452.72265625</ele>
        <time>2012-06-08T00:34:08Z</time>
      </trkpt>
      <trkpt lat="44.59148" lon="2.33527">
        <ele>432.671875</ele>
        <time>2012-06-08T00:34:28Z</time>
      </trkpt>
      <trkpt lat="44.5912" lon="2.33494">
        <ele>420.33984375</ele>
        <time>2012-06-08T00:34:48Z</time>
      </trkpt>
      <trkpt lat="44.59102" lon="2.33447">
        <ele>407.0859375</ele>
        <time>2012-06-08T00:35:08Z</time>
      </trkpt>
      <trkpt lat="44.59015" lon="2.33522">
        <ele>399.78515625</ele>
        <time>2012-06-08T00:35:28Z</time>
      </trkpt>
      <trkpt lat="44.59002" lon="2.33514">
        <ele>393.69140625</ele>
        <time>2012-06-08T00:35:48Z</time>
      </trkpt>
      <trkpt lat="44.59017" lon="2.33466">
        <ele>389.6640625</ele>
        <time>2012-06-08T00:36:08Z</time>
      </trkpt>
      <trkpt lat="44.59055" lon="2.33422">
        <ele>389.18359375</ele>
        <time>2012-06-08T00:36:28Z</time>
      </trkpt>
      <trkpt lat="44.59061" lon="2.33396">
        <ele>386.48046875</ele>
        <time>2012-06-08T00:36:48Z</time>
      </trkpt>
      <trkpt lat="44.59003" lon="2.33413">
        <ele>388.49609375</ele>
        <time>2012-06-08T00:37:08Z</time>
      </trkpt>
      <trkpt lat="44.58999" lon="2.33369">
        <ele>392.1484375</ele>
        <time>2012-06-08T00:37:28Z</time>
      </trkpt>
      <trkpt lat="44.58973" lon="2.33266">
        <ele>386.59765625</ele>
        <time>2012-06-08T00:37:48Z</time>
      </trkpt>
      <trkpt lat="44.58855" lon="2.33092">
        <ele>417.078125</ele>
        <time>2012-06-08T00:38:08Z</time>
      </trkpt>
      <trkpt lat="44.58841" lon="2.33064">
        <ele>419.98828125</ele>
        <time>2012-06-08T00:38:28Z</time>
      </trkpt>
      <trkpt lat="44.58798" lon="2.33012">
        <ele>434.234375</ele>
        <time>2012-06-08T00:38:48Z</time>
      </trkpt>
      <trkpt lat="44.58789" lon="2.32925">
        <ele>426.453125</ele>
        <time>2012-06-08T00:39:08Z</time>
      </trkpt>
      <trkpt lat="44.58719" lon="2.32855">
        <ele>442.01953125</ele>
        <time>2012-06-08T00:39:28Z</time>
      </trkpt>
      <trkpt lat="44.58706" lon="2.32833">
        <ele>440.66015625</ele>
        <time>2012-06-08T00:39:48Z</time>
      </trkpt>
      <trkpt lat="44.58629" lon="2.32771">
        <ele>445.71484375</ele>
        <time>2012-06-08T00:40:08Z</time>
      </trkpt>
      <trkpt lat="44.58621" lon="2.32749">
        <ele>445.9921875</ele>
        <time>2012-06-08T00:40:28Z</time>
      </trkpt>
      <trkpt lat="44.5864" lon="2.32675">
        <ele>447.046875</ele>
        <time>2012-06-08T00:40:48Z</time>
      </trkpt>
      <trkpt lat="44.58632" lon="2.32629">
        <ele>451.78125</ele>
        <time>2012-06-08T00:41:08Z</time>
      </trkpt>
      <trkpt lat="44.586" lon="2.32553">
        <ele>447.40234375</ele>
        <time>2012-06-08T00:41:28Z</time>
      </trkpt>
      <trkpt lat="44.5857" lon="2.32519">
        <ele>448.99609375</ele>
        <time>2012-06-08T00:41:48Z</time>
      </trkpt>
      <trkpt lat="44.58535" lon="2.32513">
        <ele>454.0234375</ele>
        <time>2012-06-08T00:42:08Z</time>
      </trkpt>
      <trkpt lat="44.58566" lon="2.32472">
        <ele>459.70703125</ele>
        <time>2012-06-08T00:42:28Z</time>
      </trkpt>
      <trkpt lat="44.58591" lon="2.32438">
        <ele>468.9140625</ele>
        <time>2012-06-08T00:42:48Z</time>
      </trkpt>
      <trkpt lat="44.58642" lon="2.32404">
        <ele>468.2734375</ele>
        <time>2012-06-08T00:43:08Z</time>
      </trkpt>
      <trkpt lat="44.58677" lon="2.32302">
        <ele>473.3515625</ele>
        <time>2012-06-08T00:43:28Z</time>
      </trkpt>
      <trkpt lat="44.58616" lon="2.32181">
        <ele>493.4453125</ele>
        <time>2012-06-08T00:43:48Z</time>
      </trkpt>
      <trkpt lat="44.58582" lon="2.32142">
        <ele>495.95703125</ele>
        <time>2012-06-08T00:44:08Z</time>
      </trkpt>
      <trkpt lat="44.58519" lon="2.32028">
        <ele>503.296875</ele>
        <time>2012-06-08T00:44:28Z</time>
      </trkpt>
      <trkpt lat="44.58508" lon="2.31983">
        <ele>506.0390625</ele>
        <time>2012-06-08T00:44:48Z</time>
      </trkpt>
      <trkpt lat="44.58481" lon="2.31955">
        <ele>509.72265625</ele>
        <time>2012-06-08T00:45:08Z</time>
      </trkpt>
      <trkpt lat="44.58416" lon="2.31937">
        <ele>510.18359375</ele>
        <time>2012-06-08T00:45:28Z</time>
      </trkpt>
      <trkpt lat="44.58355" lon="2.31971">
        <ele>506.0078125</ele>
        <time>2012-06-08T00:45:48Z</time>
      </trkpt>
      <trkpt lat="44.5832" lon="2.32015">
        <ele>505.76953125</ele>
        <time>2012-06-08T00:46:08Z</time>
      </trkpt>
      <trkpt lat="44.58241" lon="2.32063">
        <ele>503.203125</ele>
        <time>2012-06-08T00:46:28Z</time>
      </trkpt>
      <trkpt lat="44.58164" lon="2.32049">
        <ele>501.421875</ele>
        <time>2012-06-08T00:46:48Z</time>
      </trkpt>
      <trkpt lat="44.58123" lon="2.31984">
        <ele>500.8359375</ele>
        <time>2012-06-08T00:47:08Z</time>
      </trkpt>
      <trkpt lat="44.58073" lon="2.32018">
        <ele>506.44140625</ele>
        <time>2012-06-08T00:47:28Z</time>
      </trkpt>
      <trkpt lat="44.58033" lon="2.32099">
        <ele>510.86328125</ele>
        <time>2012-06-08T00:47:48Z</time>
      </trkpt>
      <trkpt lat="44.57998" lon="2.32175">
        <ele>511.08203125</ele>
        <time>2012-06-08T00:48:08Z</time>
      </trkpt>
      <trkpt lat="44.57912" lon="2.32248">
        <ele>502.46484375</ele>
        <time>2012-06-08T00:48:28Z</time>
      </trkpt>
      <trkpt lat="44.57868" lon="2.32266">
        <ele>494.6796875</ele>
        <time>2012-06-08T00:48:48Z</time>
      </trkpt>
      <trkpt lat="44.57863" lon="2.3233">
        <ele>499.6328125</ele>
        <time>2012-06-08T00:49:08Z</time>
      </trkpt>
      <trkpt lat="44.57832" lon="2.32379">
        <ele>493.109375</ele>
        <time>2012-06-08T00:49:28Z</time>
      </trkpt>
      <trkpt lat="44.57759" lon="2.324">
        <ele>485.6015625</ele>
        <time>2012-06-08T00:49:48Z</time>
      </trkpt>
      <trkpt lat="44.57734" lon="2.32444">
        <ele>487.5546875</ele>
        <time>2012-06-08T00:50:08Z</time>
      </trkpt>
      <trkpt lat="44.57665" lon="2.32438">
        <ele>480.3984375</ele>
        <time>2012-06-08T00:50:28Z</time>
      </trkpt>
      <trkpt lat="44.57609" lon="2.3241">
        <ele>475.8984375</ele>
        <time>2012-06-08T00:50:48Z</time>
      </trkpt>
      <trkpt lat="44.5758" lon="2.32417">
        <ele>478.09765625</ele>
        <time>2012-06-08T00:51:08Z</time>
      </trkpt>
      <trkpt lat="44.57512" lon="2.32342">
        <ele>472.4296875</ele>
        <time>2012-06-08T00:51:28Z</time>
      </trkpt>
      <trkpt lat="44.57423" lon="2.32352">
        <ele>466.02734375</ele>
        <time>2012-06-08T00:51:48Z</time>
      </trkpt>
      <trkpt lat="44.5739" lon="2.32395">
        <ele>464.578125</ele>
        <time>2012-06-08T00:52:08Z</time>
      </trkpt>
      <trkpt lat="44.5735" lon="2.32552">
        <ele>472.87890625</ele>
        <time>2012-06-08T00:52:28Z</time>
      </trkpt>
      <trkpt lat="44.57288" lon="2.32628">
        <ele>481.125</ele>
        <time>2012-06-08T00:52:48Z</time>
      </trkpt>
      <trkpt lat="44.57236" lon="2.32734">
        <ele>488.54296875</ele>
        <time>2012-06-08T00:53:08Z</time>
      </trkpt>
      <trkpt lat="44.57216" lon="2.32746">
        <ele>493.02734375</ele>
        <time>2012-06-08T00:53:28Z</time>
      </trkpt>
      <trkpt lat="44.57106" lon="2.32756">
        <ele>512.8046875</ele>
        <time>2012-06-08T00:53:48Z</time>
      </trkpt>
      <trkpt lat="44.57027" lon="2.3272">
        <ele>523.90625</ele>
        <time>2012-06-08T00:54:08Z</time>
      </trkpt>
      <trkpt lat="44.56973" lon="2.3272">
        <ele>526.515625</ele>
        <time>2012-06-08T00:54:28Z</time>
      </trkpt>
      <trkpt lat="44.56924" lon="2.32742">
        <ele>527.73046875</ele>
        <time>2012-06-08T00:54:48Z</time>
      </trkpt>
      <trkpt lat="44.56883" lon="2.32741">
        <ele>531.99609375</ele>
        <time>2012-06-08T00:55:08Z</time>
      </trkpt>
      <trkpt lat="44.56883" lon="2.32725">
        <ele>534.625</ele>
        <time>2012-06-08T00:55:28Z</time>
      </trkpt>
      <trkpt lat="44.56926" lon="2.3271">
        <ele>533.74609375</ele>
        <time>2012-06-08T00:55:48Z</time>
      </trkpt>
      <trkpt lat="44.56985" lon="2.32655">
        <ele>540.4609375</ele>
        <time>2012-06-08T00:56:08Z</time>
      </trkpt>
      <trkpt lat="44.57038" lon="2.32637">
        <ele>541.8203125</ele>
        <time>2012-06-08T00:56:28Z</time>
      </trkpt>
      <trkpt lat="44.57084" lon="2.3256">
        <ele>539.4765625</ele>
        <time>2012-06-08T00:56:48Z</time>
      </trkpt>
      <trkpt lat="44.57075" lon="2.32496">
        <ele>542.546875</ele>
        <time>2012-06-08T00:57:08Z</time>
      </trkpt>
      <trkpt lat="44.56983" lon="2.32557">
        <ele>549.52734375</ele>
        <time>2012-06-08T00:57:28Z</time>
      </trkpt>
      <trkpt lat="44.56957" lon="2.3256">
        <ele>551.50390625</ele>
        <time>2012-06-08T00:57:48Z</time>
      </trkpt>
      <trkpt lat="44.56816" lon="2.32483">
        <ele>562.5859375</ele>
        <time>2012-06-08T00:58:08Z</time>
      </trkpt>
      <trkpt lat="44.56749" lon="2.32398">
        <ele>566.15625</ele>
        <time>2012-06-08T00:58:28Z</time>
      </trkpt>
      <trkpt lat="44.5661" lon="2.3231">
        <ele>575.4296875</ele>
        <time>2012-06-08T00:58:48Z</time>
      </trkpt>
      <trkpt lat="44.56599" lon="2.32346">
        <ele>574.7265625</ele>
        <time>2012-06-08T00:59:08Z</time>
      </trkpt>
      <trkpt lat="44.56572" lon="2.32365">
        <ele>576.8984375</ele>
        <time>2012-06-08T00:59:28Z</time>
      </trkpt>
      <trkpt lat="44.56558" lon="2.32399">
        <ele>575.3671875</ele>
        <time>2012-06-08T00:59:48Z</time>
      </trkpt>
      <trkpt lat="44.56584" lon="2.3256">
        <ele>564.59375</ele>
        <time>2012-06-08T01:00:08Z</time>
      </trkpt>
      <trkpt lat="44.56529" lon="2.32477">
        <ele>573.34765625</ele>
        <time>2012-06-08T01:00:28Z</time>
      </trkpt>
      <trkpt lat="44.56456" lon="2.32429">
        <ele>579.984375</ele>
        <time>2012-06-08T01:00:48Z</time>
      </trkpt>
      <trkpt lat="44.56432" lon="2.32385">
        <ele>583.36328125</ele>
        <time>2012-06-08T01:01:08Z</time>
      </trkpt>
      <trkpt lat="44.56388" lon="2.32362">
        <ele>577.59765625</ele>
        <time>2012-06-08T01:01:28Z</time>
      </trkpt>
      <trkpt lat="44.56364" lon="2.32298">
        <ele>571.36328125</ele>
        <time>2012-06-08T01:01:48Z</time>
      </trkpt>
      <trkpt lat="44.56356" lon="2.32221">
        <ele>566.44921875</ele>
        <time>2012-06-08T01:02:08Z</time>
      </trkpt>
      <trkpt lat="44.56336" lon="2.32148">
        <ele>563.33984375</ele>
        <time>2012-06-08T01:02:28Z</time>
      </trkpt>
      <trkpt lat="44.56257" lon="2.3196">
        <ele>548.2421875</ele>
        <time>2012-06-08T01:02:48Z</time>
      </trkpt>
      <trkpt lat="44.56215" lon="2.31704">
        <ele>540.8984375</ele>
        <time>2012-06-08T01:03:08Z</time>
      </trkpt>
      <trkpt lat="44.56214" lon="2.31629">
        <ele>536.69921875</ele>
        <time>2012-06-08T01:03:28Z</time>
      </trkpt>
      <trkpt lat="44.56186" lon="2.31431">
        <ele>525.578125</ele>
        <time>2012-06-08T01:03:48Z</time>
      </trkpt>
      <trkpt lat="44.56183" lon="2.31365">
        <ele>525.58984375</ele>
        <time>2012-06-08T01:04:08Z</time>
      </trkpt>
      <trkpt lat="44.5611" lon="2.31282">
        <ele>523.66015625</ele>
        <time>2012-06-08T01:04:28Z</time>
      </trkpt>
      <trkpt lat="44.56054" lon="2.31108">
        <ele>521.0078125</ele>
        <time>2012-06-08T01:04:48Z</time>
      </trkpt>
      <trkpt lat="44.56018" lon="2.31039">
        <ele>515.08203125</ele>
        <time>2012-06-08T01:05:08Z</time>
      </trkpt>
      <trkpt lat="44.56003" lon="2.30926">
        <ele>502.765625</ele>
        <time>2012-06-08T01:05:28Z</time>
      </trkpt>
      <trkpt lat="44.56027" lon="2.30778">
        <ele>497.19921875</ele>
        <time>2012-06-08T01:05:48Z</time>
      </trkpt>
      <trkpt lat="44.56019" lon="2.30656">
        <ele>495.0859375</ele>
        <time>2012-06-08T01:06:08Z</time>
      </trkpt>
      <trkpt lat="44.56006" lon="2.30613">
        <ele>496.3125</ele>
        <time>2012-06-08T01:06:28Z</time>
      </trkpt>
      <trkpt lat="44.56017" lon="2.30455">
        <ele>499.19140625</ele>
        <time>2012-06-08T01:06:48Z</time>
      </trkpt>
      <trkpt lat="44.56045" lon="2.30371">
        <ele>500.109375</ele>
        <time>2012-06-08T01:07:08Z</time>
      </trkpt>
      <trkpt lat="44.56064" lon="2.30296">
        <ele>498.671875</ele>
        <time>2012-06-08T01:07:28Z</time>
      </trkpt>
      <trkpt lat="44.56141" lon="2.30211">
        <ele>487.125</ele>
        <time>2012-06-08T01:07:48Z</time>
      </trkpt>
      <trkpt lat="44.56157" lon="2.30159">
        <ele>481.30078125</ele>
        <time>2012-06-08T01:08:08Z</time>
      </trkpt>
      <trkpt lat="44.56146" lon="2.30136">
        <ele>481.87109375</ele>
        <time>2012-06-08T01:08:28Z</time>
      </trkpt>
      <trkpt lat="44.56124" lon="2.30137">
        <ele>482.76953125</ele>
        <time>2012-06-08T01:08:48Z</time>
      </trkpt>
      <trkpt lat="44.56103" lon="2.30152">
        <ele>484.0703125</ele>
        <time>2012-06-08T01:09:08Z</time>
      </trkpt>
      <trkpt lat="44.56061" lon="2.3015">
        <ele>482.24609375</ele>
        <time>2012-06-08T01:09:28Z</time>
      </trkpt>
      <trkpt lat="44.56032" lon="2.30134">
        <ele>479.171875</ele>
        <time>2012-06-08T01:09:48Z</time>
      </trkpt>
      <trkpt lat="44.56014" lon="2.30054">
        <ele>468.1953125</ele>
        <time>2012-06-08T01:10:08Z</time>
      </trkpt>
      <trkpt lat="44.56048" lon="2.30034">
        <ele>465.09765625</ele>
        <time>2012-06-08T01:10:28Z</time>
      </trkpt>
      <trkpt lat="44.5602" lon="2.29973">
        <ele>461.22265625</ele>
        <time>2012-06-08T01:10:48Z</time>
      </trkpt>
      <trkpt lat="44.56021" lon="2.29932">
        <ele>453.7421875</ele>
        <time>2012-06-08T01:11:08Z</time>
      </trkpt>
      <trkpt lat="44.55988" lon="2.29904">
        <ele>453.7578125</ele>
        <time>2012-06-08T01:11:28Z</time>
      </trkpt>
      <trkpt lat="44.55989" lon="2.29873">
        <ele>450.0625</ele>
        <time>2012-06-08T01:11:48Z</time>
      </trkpt>
      <trkpt lat="44.55977" lon="2.2981">
        <ele>447.203125</ele>
        <time>2012-06-08T01:12:08Z</time>
      </trkpt>
      <trkpt lat="44.55996" lon="2.29759">
        <ele>445.63671875</ele>
        <time>2012-06-08T01:12:28Z</time>
      </trkpt>
      <trkpt lat="44.56099" lon="2.29622">
        <ele>436.9375</ele>
        <time>2012-06-08T01:12:48Z</time>
      </trkpt>
      <trkpt lat="44.56118" lon="2.2955">
        <ele>433.5234375</ele>
        <time>2012-06-08T01:13:08Z</time>
      </trkpt>
      <trkpt lat="44.56088" lon="2.2949">
        <ele>431.0625</ele>
        <time>2012-06-08T01:13:28Z</time>
      </trkpt>
      <trkpt lat="44.56093" lon="2.29318">
        <ele>423.23046875</ele>
        <time>2012-06-08T01:13:48Z</time>
      </trkpt>
      <trkpt lat="44.56159" lon="2.29176">
        <ele>427.0078125</ele>
        <time>2012-06-08T01:14:08Z</time>
      </trkpt>
      <trkpt lat="44.5627" lon="2.29">
        <ele>426.99609375</ele>
        <time>2012-06-08T01:14:28Z</time>
      </trkpt>
      <trkpt lat="44.5626" lon="2.28823">
        <ele>424.234375</ele>
        <time>2012-06-08T01:14:48Z</time>
      </trkpt>
      <trkpt lat="44.56246" lon="2.28798">
        <ele>421.97265625</ele>
        <time>2012-06-08T01:15:08Z</time>
      </trkpt>
      <trkpt lat="44.56216" lon="2.28761">
        <ele>415.6171875</ele>
        <time>2012-06-08T01:15:28Z</time>
      </trkpt>
      <trkpt lat="44.5622" lon="2.28678">
        <ele>411.32421875</ele>
        <time>2012-06-08T01:15:48Z</time>
      </trkpt>
      <trkpt lat="44.56263" lon="2.2857">
        <ele>398.8984375</ele>
        <time>2012-06-08T01:16:08Z</time>
      </trkpt>
      <trkpt lat="44.56293" lon="2.28525">
        <ele>394.11328125</ele>
        <time>2012-06-08T01:16:28Z</time>
      </trkpt>
      <trkpt lat="44.56366" lon="2.28413">
        <ele>381.5859375</ele>
        <time>2012-06-08T01:16:48Z</time>
      </trkpt>
      <trkpt lat="44.56406" lon="2.28409">
        <ele>369.828125</ele>
        <time>2012-06-08T01:17:08Z</time>
      </trkpt>
      <trkpt lat="44.56378" lon="2.28364">
        <ele>370.171875</ele>
        <time>2012-06-08T01:17:28Z</time>
      </trkpt>
      <trkpt lat="44.56375" lon="2.28219">
        <ele>353.76171875</ele>
        <time>2012-06-08T01:17:48Z</time>
      </trkpt>
      <trkpt lat="44.56348" lon="2.28018">
        <ele>342.1875</ele>
        <time>2012-06-08T01:18:08Z</time>
      </trkpt>
      <trkpt lat="44.56368" lon="2.27886">
        <ele>331.83203125</ele>
        <time>2012-06-08T01:18:28Z</time>
      </trkpt>
      <trkpt lat="44.56364" lon="2.27823">
        <ele>329.2734375</ele>
        <time>2012-06-08T01:18:48Z</time>
      </trkpt>
      <trkpt lat="44.56345" lon="2.27808">
        <ele>331.39453125</ele>
        <time>2012-06-08T01:19:08Z</time>
      </trkpt>
      <trkpt lat="44.56411" lon="2.27598">
        <ele>323.875</ele>
        <time>2012-06-08T01:19:28Z</time>
      </trkpt>
      <trkpt lat="44.5643" lon="2.27498">
        <ele>327.30078125</ele>
        <time>2012-06-08T01:19:48Z</time>
      </trkpt>
      <trkpt lat="44.56484" lon="2.27386">
        <ele>332.234375</ele>
        <time>2012-06-08T01:20:08Z</time>
      </trkpt>
      <trkpt lat="44.56509" lon="2.27269">
        <ele>332.8828125</ele>
        <time>2012-06-08T01:20:28Z</time>
      </trkpt>
      <trkpt lat="44.56481" lon="2.27102">
        <ele>338.3046875</ele>
        <time>2012-06-08T01:20:48Z</time>
      </trkpt>
      <trkpt lat="44.56312" lon="2.26552">
        <ele>348.08203125</ele>
        <time>2012-06-08T01:21:08Z</time>
      </trkpt>
      <trkpt lat="44.56314" lon="2.26459">
        <ele>347.1328125</ele>
        <time>2012-06-08T01:21:28Z</time>
      </trkpt>
      <trkpt lat="44.56331" lon="2.26402">
        <ele>343.4453125</ele>
        <time>2012-06-08T01:21:48Z</time>
      </trkpt>
      <trkpt lat="44.56326" lon="2.2637">
        <ele>343.390625</ele>
        <time>2012-06-08T01:22:08Z</time>
      </trkpt>
      <trkpt lat="44.56361" lon="2.26245">
        <ele>332.28125</ele>
        <time>2012-06-08T01:22:28Z</time>
      </trkpt>
      <trkpt lat="44.56383" lon="2.262">
        <ele>328.30859375</ele>
        <time>2012-06-08T01:22:48Z</time>
      </trkpt>
      <trkpt lat="44.5644" lon="2.26019">
        <ele>311.13671875</ele>
        <time>2012-06-08T01:23:08Z</time>
      </trkpt>
      <trkpt lat="44.56466" lon="2.25877">
        <ele>303.00390625</ele>
        <time>2012-06-08T01:23:28Z</time>
      </trkpt>
      <trkpt lat="44.56462" lon="2.25814">
        <ele>298.83203125</ele>
        <time>2012-06-08T01:23:48Z</time>
      </trkpt>
      <trkpt lat="44.56474" lon="2.25764">
        <ele>293.22265625</ele>
        <time>2012-06-08T01:24:08Z</time>
      </trkpt>
      <trkpt lat="44.56463" lon="2.25649">
        <ele>281.80078125</ele>
        <time>2012-06-08T01:24:28Z</time>
      </trkpt>
      <trkpt lat="44.565" lon="2.25623">
        <ele>276.71484375</ele>
        <time>2012-06-08T01:24:48Z</time>
      </trkpt>
      <trkpt lat="44.56508" lon="2.25536">
        <ele>264.64453125</ele>
        <time>2012-06-08T01:25:08Z</time>
      </trkpt>
      <trkpt lat="44.56469" lon="2.25474">
        <ele>262.34765625</ele>
        <time>2012-06-08T01:25:28Z</time>
      </trkpt>
      <trkpt lat="44.56459" lon="2.25436">
        <ele>260.01171875</ele>
        <time>2012-06-08T01:25:48Z</time>
      </trkpt>
      <trkpt lat="44.56461" lon="2.25332">
        <ele>249.62109375</ele>
        <time>2012-06-08T01:26:08Z</time>
      </trkpt>
      <trkpt lat="44.56445" lon="2.2531">
        <ele>246.91015625</ele>
        <time>2012-06-08T01:26:28Z</time>
      </trkpt>
      <trkpt lat="44.56434" lon="2.25207">
        <ele>231.30859375</ele>
        <time>2012-06-08T01:26:48Z</time>
      </trkpt>
      <trkpt lat="44.56446" lon="2.25197">
        <ele>230.1484375</ele>
        <time>2012-06-08T01:27:08Z</time>
      </trkpt>
      <trkpt lat="44.56509" lon="2.25176">
        <ele>222.91796875</ele>
        <time>2012-06-08T01:27:28Z</time>
      </trkpt>
      <trkpt lat="44.56504" lon="2.25154">
        <ele>221.09375</ele>
        <time>2012-06-08T01:27:48Z</time>
      </trkpt>
      <trkpt lat="44.56482" lon="2.25141">
        <ele>220.984375</ele>
        <time>2012-06-08T01:28:08Z</time>
      </trkpt>
      <trkpt lat="44.56435" lon="2.25075">
        <ele>216.50390625</ele>
        <time>2012-06-08T01:28:28Z</time>
      </trkpt>
      <trkpt lat="44.56404" lon="2.25062">
        <ele>216.16796875</ele>
        <time>2012-06-08T01:28:48Z</time>
      </trkpt>
      <trkpt lat="44.56368" lon="2.25075">
        <ele>216.65234375</ele>
        <time>2012-06-08T01:29:08Z</time>
      </trkpt>
      <trkpt lat="44.56352" lon="2.25055">
        <ele>215.91796875</ele>
        <time>2012-06-08T01:29:28Z</time>
      </trkpt>
      <trkpt lat="44.56378" lon="2.24905">
        <ele>212</ele>
        <time>2012-06-08T01:29:48Z</time>
      </trkpt>
      <trkpt lat="44.56379" lon="2.24811">
        <ele>214.62890625</ele>
        <time>2012-06-08T01:30:08Z</time>
      </trkpt>
      <trkpt lat="44.56433" lon="2.24833">
        <ele>217.2109375</ele>
        <time>2012-06-08T01:30:28Z</time>
      </trkpt>
      <trkpt lat="44.56438" lon="2.24783">
        <ele>223.625</ele>
        <time>2012-06-08T01:30:48Z</time>
      </trkpt>
      <trkpt lat="44.56404" lon="2.24687">
        <ele>226.12109375</ele>
        <time>2012-06-08T01:31:08Z</time>
      </trkpt>
      <trkpt lat="44.56412" lon="2.24654">
        <ele>227.97265625</ele>
        <time>2012-06-08T01:31:28Z</time>
      </trkpt>
      <trkpt lat="44.56463" lon="2.24604">
        <ele>235.6953125</ele>
        <time>2012-06-08T01:31:48Z</time>
      </trkpt>
      <trkpt lat="44.56498" lon="2.24619">
        <ele>244.5546875</ele>
        <time>2012-06-08T01:32:08Z</time>
      </trkpt>
      <trkpt lat="44.5652" lon="2.24665">
        <ele>250.78125</ele>
        <time>2012-06-08T01:32:28Z</time>
      </trkpt>
      <trkpt lat="44.56537" lon="2.24672">
        <ele>254.2421875</ele>
        <time>2012-06-08T01:32:48Z</time>
      </trkpt>
      <trkpt lat="44.56588" lon="2.24644">
        <ele>265.61328125</ele>
        <time>2012-06-08T01:33:08Z</time>
      </trkpt>
      <trkpt lat="44.56608" lon="2.24583">
        <ele>266.14453125</ele>
        <time>2012-06-08T01:33:28Z</time>
      </trkpt>
      <trkpt lat="44.56644" lon="2.24564">
        <ele>270.90234375</ele>
        <time>2012-06-08T01:33:48Z</time>
      </trkpt>
      <trkpt lat="44.56707" lon="2.2456">
        <ele>278.5703125</ele>
        <time>2012-06-08T01:34:08Z</time>
      </trkpt>
      <trkpt lat="44.56711" lon="2.24609">
        <ele>283.55078125</ele>
        <time>2012-06-08T01:34:28Z</time>
      </trkpt>
      <trkpt lat="44.56777" lon="2.24625">
        <ele>287.84765625</ele>
        <time>2012-06-08T01:34:48Z</time>
      </trkpt>
      <trkpt lat="44.56823" lon="2.2466">
        <ele>289.27734375</ele>
        <time>2012-06-08T01:35:08Z</time>
      </trkpt>
      <trkpt lat="44.56865" lon="2.24665">
        <ele>289.08984375</ele>
        <time>2012-06-08T01:35:28Z</time>
      </trkpt>
      <trkpt lat="44.56957" lon="2.24699">
        <ele>284.50390625</ele>
        <time>2012-06-08T01:35:48Z</time>
      </trkpt>
      <trkpt lat="44.57067" lon="2.24682">
        <ele>280.265625</ele>
        <time>2012-06-08T01:36:08Z</time>
      </trkpt>
      <trkpt lat="44.57132" lon="2.24654">
        <ele>280.25</ele>
        <time>2012-06-08T01:36:28Z</time>
      </trkpt>
      <trkpt lat="44.57199" lon="2.24599">
        <ele>285.4453125</ele>
        <time>2012-06-08T01:36:48Z</time>
      </trkpt>
      <trkpt lat="44.57289" lon="2.24572">
        <ele>291.47265625</ele>
        <time>2012-06-08T01:37:08Z</time>
      </trkpt>
      <trkpt lat="44.57266" lon="2.24564">
        <ele>293.8984375</ele>
        <time>2012-06-08T01:37:28Z</time>
      </trkpt>
      <trkpt lat="44.57263" lon="2.24555">
        <ele>295.36328125</ele>
        <time>2012-06-08T01:37:48Z</time>
      </trkpt>
      <trkpt lat="44.57301" lon="2.24539">
        <ele>296.6875</ele>
        <time>2012-06-08T01:38:08Z</time>
      </trkpt>
      <trkpt lat="44.57332" lon="2.24482">
        <ele>300.64453125</ele>
        <time>2012-06-08T01:38:28Z</time>
      </trkpt>
      <trkpt lat="44.57341" lon="2.24436">
        <ele>303.96875</ele>
        <time>2012-06-08T01:38:48Z</time>
      </trkpt>
      <trkpt lat="44.57326" lon="2.24388">
        <ele>311.88671875</ele>
        <time>2012-06-08T01:39:08Z</time>
      </trkpt>
      <trkpt lat="44.57333" lon="2.24359">
        <ele>315.5546875</ele>
        <time>2012-06-08T01:39:28Z</time>
      </trkpt>
      <trkpt lat="44.57394" lon="2.2424">
        <ele>327.79296875</ele>
        <time>2012-06-08T01:39:48Z</time>
      </trkpt>
      <trkpt lat="44.57492" lon="2.24108">
        <ele>338.796875</ele>
        <time>2012-06-08T01:40:08Z</time>
      </trkpt>
      <trkpt lat="44.57513" lon="2.24049">
        <ele>344.33203125</ele>
        <time>2012-06-08T01:40:28Z</time>
      </trkpt>
      <trkpt lat="44.57481" lon="2.24044">
        <ele>344.48828125</ele>
        <time>2012-06-08T01:40:48Z</time>
      </trkpt>
      <trkpt lat="44.57497" lon="2.24028">
        <ele>344.88671875</ele>
        <time>2012-06-08T01:41:08Z</time>
      </trkpt>
      <trkpt lat="44.57567" lon="2.23981">
        <ele>345.171875</ele>
        <time>2012-06-08T01:41:28Z</time>
      </trkpt>
      <trkpt lat="44.57618" lon="2.2397">
        <ele>343.93359375</ele>
        <time>2012-06-08T01:41:48Z</time>
      </trkpt>
      <trkpt lat="44.57639" lon="2.23959">
        <ele>342.08203125</ele>
        <time>2012-06-08T01:42:08Z</time>
      </trkpt>
      <trkpt lat="44.57642" lon="2.23933">
        <ele>342.67578125</ele>
        <time>2012-06-08T01:42:28Z</time>
      </trkpt>
      <trkpt lat="44.5768" lon="2.23861">
        <ele>342.94140625</ele>
        <time>2012-06-08T01:42:48Z</time>
      </trkpt>
      <trkpt lat="44.5768" lon="2.23784">
        <ele>343.5234375</ele>
        <time>2012-06-08T01:43:08Z</time>
      </trkpt>
      <trkpt lat="44.5771" lon="2.23634">
        <ele>339.4609375</ele>
        <time>2012-06-08T01:43:28Z</time>
      </trkpt>
      <trkpt lat="44.57792" lon="2.23437">
        <ele>337.9609375</ele>
        <time>2012-06-08T01:43:48Z</time>
      </trkpt>
      <trkpt lat="44.57811" lon="2.23365">
        <ele>337.97265625</ele>
        <time>2012-06-08T01:44:08Z</time>
      </trkpt>
      <trkpt lat="44.57896" lon="2.23202">
        <ele>321.375</ele>
        <time>2012-06-08T01:44:28Z</time>
      </trkpt>
      <trkpt lat="44.57987" lon="2.23057">
        <ele>320.30078125</ele>
        <time>2012-06-08T01:44:48Z</time>
      </trkpt>
      <trkpt lat="44.58056" lon="2.22852">
        <ele>320.05078125</ele>
        <time>2012-06-08T01:45:08Z</time>
      </trkpt>
      <trkpt lat="44.58096" lon="2.22841">
        <ele>313.8125</ele>
        <time>2012-06-08T01:45:28Z</time>
      </trkpt>
      <trkpt lat="44.58149" lon="2.22848">
        <ele>301.58203125</ele>
        <time>2012-06-08T01:45:48Z</time>
      </trkpt>
      <trkpt lat="44.58199" lon="2.22761">
        <ele>295.5078125</ele>
        <time>2012-06-08T01:46:08Z</time>
      </trkpt>
      <trkpt lat="44.58213" lon="2.22683">
        <ele>290.35546875</ele>
        <time>2012-06-08T01:46:28Z</time>
      </trkpt>
      <trkpt lat="44.58215" lon="2.2259">
        <ele>290.9375</ele>
        <time>2012-06-08T01:46:48Z</time>
      </trkpt>
      <trkpt lat="44.58142" lon="2.22477">
        <ele>285.10546875</ele>
        <time>2012-06-08T01:47:08Z</time>
      </trkpt>
      <trkpt lat="44.58162" lon="2.22467">
        <ele>279.81640625</ele>
        <time>2012-06-08T01:47:28Z</time>
      </trkpt>
      <trkpt lat="44.58215" lon="2.22489">
        <ele>271.7109375</ele>
        <time>2012-06-08T01:47:48Z</time>
      </trkpt>
      <trkpt lat="44.58204" lon="2.22394">
        <ele>271.1640625</ele>
        <time>2012-06-08T01:48:08Z</time>
      </trkpt>
      <trkpt lat="44.58298" lon="2.22433">
        <ele>252.83203125</ele>
        <time>2012-06-08T01:48:28Z</time>
      </trkpt>
      <trkpt lat="44.58352" lon="2.22525">
        <ele>238.74609375</ele>
        <time>2012-06-08T01:48:48Z</time>
      </trkpt>
      <trkpt lat="44.58485" lon="2.2283">
        <ele>188.10546875</ele>
        <time>2012-06-08T01:49:08Z</time>
      </trkpt>
      <trkpt lat="44.58477" lon="2.22866">
        <ele>187.171875</ele>
        <time>2012-06-08T01:49:28Z</time>
      </trkpt>
      <trkpt lat="44.58532" lon="2.22861">
        <ele>180.1484375</ele>
        <time>2012-06-08T01:49:48Z</time>
      </trkpt>
      <trkpt lat="44.58699" lon="2.22965">
        <ele>183.57421875</ele>
        <time>2012-06-08T01:50:08Z</time>
      </trkpt>
      <trkpt lat="44.5873" lon="2.2302">
        <ele>186.08984375</ele>
        <time>2012-06-08T01:50:28Z</time>
      </trkpt>
      <trkpt lat="44.58752" lon="2.23104">
        <ele>187.80859375</ele>
        <time>2012-06-08T01:50:48Z</time>
      </trkpt>
      <trkpt lat="44.58776" lon="2.23096">
        <ele>188.7421875</ele>
        <time>2012-06-08T01:51:08Z</time>
      </trkpt>
      <trkpt lat="44.58846" lon="2.23152">
        <ele>192.25390625</ele>
        <time>2012-06-08T01:51:28Z</time>
      </trkpt>
      <trkpt lat="44.58894" lon="2.23181">
        <ele>194.9453125</ele>
        <time>2012-06-08T01:51:48Z</time>
      </trkpt>
      <trkpt lat="44.58924" lon="2.23227">
        <ele>196.05859375</ele>
        <time>2012-06-08T01:52:08Z</time>
      </trkpt>
      <trkpt lat="44.58929" lon="2.23224">
        <ele>196.23828125</ele>
        <time>2012-06-08T01:52:28Z</time>
      </trkpt>
      <trkpt lat="44.58935" lon="2.23235">
        <ele>196.45703125</ele>
        <time>2012-06-08T01:52:48Z</time>
      </trkpt>
      <trkpt lat="44.59035" lon="2.23237">
        <ele>201.109375</ele>
        <time>2012-06-08T01:53:08Z</time>
      </trkpt>
      <trkpt lat="44.59103" lon="2.2322">
        <ele>206.0625</ele>
        <time>2012-06-08T01:53:28Z</time>
      </trkpt>
      <trkpt lat="44.59107" lon="2.23201">
        <ele>206.3359375</ele>
        <time>2012-06-08T01:53:48Z</time>
      </trkpt>
      <trkpt lat="44.59135" lon="2.23152">
        <ele>208.31640625</ele>
        <time>2012-06-08T01:54:08Z</time>
      </trkpt>
      <trkpt lat="44.59121" lon="2.23108">
        <ele>207.44921875</ele>
        <time>2012-06-08T01:54:28Z</time>
      </trkpt>
      <trkpt lat="44.59102" lon="2.23106">
        <ele>205.953125</ele>
        <time>2012-06-08T01:54:48Z</time>
      </trkpt>
      <trkpt lat="44.59097" lon="2.23086">
        <ele>205.59375</ele>
        <time>2012-06-08T01:55:08Z</time>
      </trkpt>
      <trkpt lat="44.59126" lon="2.23027">
        <ele>207.5859375</ele>
        <time>2012-06-08T01:55:28Z</time>
      </trkpt>
      <trkpt lat="44.59196" lon="2.22845">
        <ele>201.48046875</ele>
        <time>2012-06-08T01:55:48Z</time>
      </trkpt>
      <trkpt lat="44.59216" lon="2.22814">
        <ele>199.51953125</ele>
        <time>2012-06-08T01:56:08Z</time>
      </trkpt>
      <trkpt lat="44.59266" lon="2.22803">
        <ele>200.59765625</ele>
        <time>2012-06-08T01:56:28Z</time>
      </trkpt>
      <trkpt lat="44.59396" lon="2.22709">
        <ele>193.38671875</ele>
        <time>2012-06-08T01:56:48Z</time>
      </trkpt>
      <trkpt lat="44.5946" lon="2.22681">
        <ele>194.59765625</ele>
        <time>2012-06-08T01:57:08Z</time>
      </trkpt>
      <trkpt lat="44.59471" lon="2.22656">
        <ele>196.71484375</ele>
        <time>2012-06-08T01:57:28Z</time>
      </trkpt>
      <trkpt lat="44.59495" lon="2.22666">
        <ele>199.1796875</ele>
        <time>2012-06-08T01:57:48Z</time>
      </trkpt>
      <trkpt lat="44.59528" lon="2.22661">
        <ele>205.3671875</ele>
        <time>2012-06-08T01:58:08Z</time>
      </trkpt>
      <trkpt lat="44.59624" lon="2.22686">
        <ele>216.4140625</ele>
        <time>2012-06-08T01:58:28Z</time>
      </trkpt>
      <trkpt lat="44.59685" lon="2.22636">
        <ele>229.53125</ele>
        <time>2012-06-08T01:58:48Z</time>
      </trkpt>
      <trkpt lat="44.59717" lon="2.22626">
        <ele>235.84765625</ele>
        <time>2012-06-08T01:59:08Z</time>
      </trkpt>
      <trkpt lat="44.59805" lon="2.22657">
        <ele>252.69921875</ele>
        <time>2012-06-08T01:59:28Z</time>
      </trkpt>
      <trkpt lat="44.59824" lon="2.22612">
        <ele>253.15234375</ele>
        <time>2012-06-08T01:59:48Z</time>
      </trkpt>
      <trkpt lat="44.59871" lon="2.22577">
        <ele>252.79296875</ele>
        <time>2012-06-08T02:00:08Z</time>
      </trkpt>
      <trkpt lat="44.59891" lon="2.22591">
        <ele>257.37890625</ele>
        <time>2012-06-08T02:00:28Z</time>
      </trkpt>
      <trkpt lat="44.59912" lon="2.22692">
        <ele>268.64453125</ele>
        <time>2012-06-08T02:00:48Z</time>
      </trkpt>
      <trkpt lat="44.59978" lon="2.22701">
        <ele>277.015625</ele>
        <time>2012-06-08T02:01:08Z</time>
      </trkpt>
      <trkpt lat="44.60025" lon="2.2273">
        <ele>282.03515625</ele>
        <time>2012-06-08T02:01:28Z</time>
      </trkpt>
      <trkpt lat="44.60137" lon="2.22711">
        <ele>288.91015625</ele>
        <time>2012-06-08T02:01:48Z</time>
      </trkpt>
      <trkpt lat="44.60227" lon="2.22688">
        <ele>299.67578125</ele>
        <time>2012-06-08T02:02:08Z</time>
      </trkpt>
      <trkpt lat="44.60458" lon="2.22644">
        <ele>319.25390625</ele>
        <time>2012-06-08T02:02:28Z</time>
      </trkpt>
      <trkpt lat="44.60535" lon="2.22589">
        <ele>323.6171875</ele>
        <time>2012-06-08T02:02:48Z</time>
      </trkpt>
      <trkpt lat="44.60538" lon="2.22548">
        <ele>325.87890625</ele>
        <time>2012-06-08T02:03:08Z</time>
      </trkpt>
      <trkpt lat="44.60652" lon="2.22519">
        <ele>321.08984375</ele>
        <time>2012-06-08T02:03:28Z</time>
      </trkpt>
      <trkpt lat="44.60901" lon="2.22414">
        <ele>313.15234375</ele>
        <time>2012-06-08T02:03:48Z</time>
      </trkpt>
      <trkpt lat="44.60962" lon="2.22374">
        <ele>310.328125</ele>
        <time>2012-06-08T02:04:08Z</time>
      </trkpt>
      <trkpt lat="44.6101" lon="2.22355">
        <ele>307.09375</ele>
        <time>2012-06-08T02:04:28Z</time>
      </trkpt>
      <trkpt lat="44.61027" lon="2.22265">
        <ele>310.28515625</ele>
        <time>2012-06-08T02:04:48Z</time>
      </trkpt>
      <trkpt lat="44.6104" lon="2.22165">
        <ele>312.75</ele>
        <time>2012-06-08T02:05:08Z</time>
      </trkpt>
      <trkpt lat="44.61154" lon="2.21957">
        <ele>320.96875</ele>
        <time>2012-06-08T02:05:28Z</time>
      </trkpt>
      <trkpt lat="44.61276" lon="2.21768">
        <ele>325.109375</ele>
        <time>2012-06-08T02:05:48Z</time>
      </trkpt>
      <trkpt lat="44.61297" lon="2.21628">
        <ele>324.94921875</ele>
        <time>2012-06-08T02:06:08Z</time>
      </trkpt>
      <trkpt lat="44.61386" lon="2.21493">
        <ele>324.33984375</ele>
        <time>2012-06-08T02:06:28Z</time>
      </trkpt>
      <trkpt lat="44.61392" lon="2.21418">
        <ele>324.2109375</ele>
        <time>2012-06-08T02:06:48Z</time>
      </trkpt>
      <trkpt lat="44.61462" lon="2.21257">
        <ele>329.25</ele>
        <time>2012-06-08T02:07:08Z</time>
      </trkpt>
      <trkpt lat="44.61391" lon="2.21269">
        <ele>338.49609375</ele>
        <time>2012-06-08T02:07:28Z</time>
      </trkpt>
      <trkpt lat="44.61423" lon="2.21132">
        <ele>347.55859375</ele>
        <time>2012-06-08T02:07:48Z</time>
      </trkpt>
      <trkpt lat="44.61483" lon="2.21008">
        <ele>356.921875</ele>
        <time>2012-06-08T02:08:08Z</time>
      </trkpt>
      <trkpt lat="44.61494" lon="2.20943">
        <ele>361.0390625</ele>
        <time>2012-06-08T02:08:28Z</time>
      </trkpt>
      <trkpt lat="44.61534" lon="2.2088">
        <ele>365.5</ele>
        <time>2012-06-08T02:08:48Z</time>
      </trkpt>
      <trkpt lat="44.61571" lon="2.20809">
        <ele>370.25</ele>
        <time>2012-06-08T02:09:08Z</time>
      </trkpt>
      <trkpt lat="44.61591" lon="2.20698">
        <ele>378.52734375</ele>
        <time>2012-06-08T02:09:28Z</time>
      </trkpt>
      <trkpt lat="44.61623" lon="2.20597">
        <ele>384.88671875</ele>
        <time>2012-06-08T02:09:48Z</time>
      </trkpt>
      <trkpt lat="44.61664" lon="2.20479">
        <ele>384.7578125</ele>
        <time>2012-06-08T02:10:08Z</time>
      </trkpt>
      <trkpt lat="44.61687" lon="2.20135">
        <ele>394.30078125</ele>
        <time>2012-06-08T02:10:28Z</time>
      </trkpt>
      <trkpt lat="44.61665" lon="2.19991">
        <ele>388.60546875</ele>
        <time>2012-06-08T02:10:48Z</time>
      </trkpt>
      <trkpt lat="44.6164" lon="2.19958">
        <ele>389.05859375</ele>
        <time>2012-06-08T02:11:08Z</time>
      </trkpt>
      <trkpt lat="44.61586" lon="2.19924">
        <ele>394.5390625</ele>
        <time>2012-06-08T02:11:28Z</time>
      </trkpt>
      <trkpt lat="44.61582" lon="2.19901">
        <ele>394.60546875</ele>
        <time>2012-06-08T02:11:48Z</time>
      </trkpt>
      <trkpt lat="44.61594" lon="2.19873">
        <ele>392.6015625</ele>
        <time>2012-06-08T02:12:08Z</time>
      </trkpt>
      <trkpt lat="44.61644" lon="2.1975">
        <ele>388.90234375</ele>
        <time>2012-06-08T02:12:28Z</time>
      </trkpt>
      <trkpt lat="44.61635" lon="2.19675">
        <ele>398.65234375</ele>
        <time>2012-06-08T02:12:48Z</time>
      </trkpt>
      <trkpt lat="44.61684" lon="2.19608">
        <ele>393.765625</ele>
        <time>2012-06-08T02:13:08Z</time>
      </trkpt>
      <trkpt lat="44.61696" lon="2.1955">
        <ele>392.64453125</ele>
        <time>2012-06-08T02:13:28Z</time>
      </trkpt>
      <trkpt lat="44.61702" lon="2.19454">
        <ele>390.8828125</ele>
        <time>2012-06-08T02:13:48Z</time>
      </trkpt>
      <trkpt lat="44.61696" lon="2.19393">
        <ele>392.67578125</ele>
        <time>2012-06-08T02:14:08Z</time>
      </trkpt>
      <trkpt lat="44.61702" lon="2.19374">
        <ele>391.234375</ele>
        <time>2012-06-08T02:14:28Z</time>
      </trkpt>
      <trkpt lat="44.61699" lon="2.19348">
        <ele>392.53515625</ele>
        <time>2012-06-08T02:14:48Z</time>
      </trkpt>
      <trkpt lat="44.61707" lon="2.19268">
        <ele>394.01953125</ele>
        <time>2012-06-08T02:15:08Z</time>
      </trkpt>
      <trkpt lat="44.61763" lon="2.19227">
        <ele>398.35546875</ele>
        <time>2012-06-08T02:15:28Z</time>
      </trkpt>
      <trkpt lat="44.61805" lon="2.19157">
        <ele>403.00390625</ele>
        <time>2012-06-08T02:15:48Z</time>
      </trkpt>
      <trkpt lat="44.61821" lon="2.19121">
        <ele>404.484375</ele>
        <time>2012-06-08T02:16:08Z</time>
      </trkpt>
      <trkpt lat="44.61784" lon="2.19065">
        <ele>405.87109375</ele>
        <time>2012-06-08T02:16:28Z</time>
      </trkpt>
      <trkpt lat="44.61791" lon="2.19033">
        <ele>405.98828125</ele>
        <time>2012-06-08T02:16:48Z</time>
      </trkpt>
      <trkpt lat="44.61807" lon="2.19028">
        <ele>405.796875</ele>
        <time>2012-06-08T02:17:08Z</time>
      </trkpt>
      <trkpt lat="44.61773" lon="2.18999">
        <ele>404.01953125</ele>
        <time>2012-06-08T02:17:28Z</time>
      </trkpt>
      <trkpt lat="44.61699" lon="2.1886">
        <ele>389.51171875</ele>
        <time>2012-06-08T02:17:48Z</time>
      </trkpt>
      <trkpt lat="44.61694" lon="2.18857">
        <ele>388.90625</ele>
        <time>2012-06-07T18:14:41Z</time>
      </trkpt>
      <trkpt lat="44.61732" lon="2.18787">
        <ele>381.94921875</ele>
        <time>2012-06-07T18:15:01Z</time>
      </trkpt>
      <trkpt lat="44.61776" lon="2.18781">
        <ele>377.25</ele>
        <time>2012-06-07T18:15:21Z</time>
      </trkpt>
      <trkpt lat="44.61837" lon="2.18784">
        <ele>371.06640625</ele>
        <time>2012-06-07T18:15:41Z</time>
      </trkpt>
      <trkpt lat="44.61887" lon="2.18745">
        <ele>363.55859375</ele>
        <time>2012-06-07T18:16:01Z</time>
      </trkpt>
      <trkpt lat="44.61915" lon="2.18657">
        <ele>354.2890625</ele>
        <time>2012-06-07T18:16:21Z</time>
      </trkpt>
      <trkpt lat="44.61921" lon="2.18284">
        <ele>374.9765625</ele>
        <time>2012-06-07T18:16:41Z</time>
      </trkpt>
      <trkpt lat="44.61939" lon="2.1819">
        <ele>382.375</ele>
        <time>2012-06-07T18:17:01Z</time>
      </trkpt>
      <trkpt lat="44.61908" lon="2.18152">
        <ele>383.62890625</ele>
        <time>2012-06-07T18:17:21Z</time>
      </trkpt>
      <trkpt lat="44.6182" lon="2.18138">
        <ele>382.49609375</ele>
        <time>2012-06-07T18:17:41Z</time>
      </trkpt>
      <trkpt lat="44.61792" lon="2.18126">
        <ele>382.73828125</ele>
        <time>2012-06-07T18:18:01Z</time>
      </trkpt>
      <trkpt lat="44.61686" lon="2.18035">
        <ele>386.03125</ele>
        <time>2012-06-07T18:18:21Z</time>
      </trkpt>
      <trkpt lat="44.61686" lon="2.18">
        <ele>387.2109375</ele>
        <time>2012-06-07T18:18:41Z</time>
      </trkpt>
      <trkpt lat="44.6175" lon="2.17846">
        <ele>383.8046875</ele>
        <time>2012-06-07T18:19:01Z</time>
      </trkpt>
      <trkpt lat="44.61788" lon="2.17775">
        <ele>374.8671875</ele>
        <time>2012-06-07T18:19:21Z</time>
      </trkpt>
      <trkpt lat="44.61838" lon="2.17775">
        <ele>373.35546875</ele>
        <time>2012-06-07T18:19:41Z</time>
      </trkpt>
      <trkpt lat="44.61857" lon="2.17753">
        <ele>371.8828125</ele>
        <time>2012-06-07T18:20:01Z</time>
      </trkpt>
      <trkpt lat="44.61873" lon="2.17719">
        <ele>371</ele>
        <time>2012-06-07T18:20:21Z</time>
      </trkpt>
      <trkpt lat="44.61871" lon="2.17687">
        <ele>371</ele>
        <time>2012-06-07T18:20:41Z</time>
      </trkpt>
      <trkpt lat="44.6189" lon="2.17661">
        <ele>371</ele>
        <time>2012-06-07T18:21:01Z</time>
      </trkpt>
      <trkpt lat="44.61898" lon="2.17607">
        <ele>370.80078125</ele>
        <time>2012-06-07T18:21:21Z</time>
      </trkpt>
      <trkpt lat="44.61924" lon="2.17598">
        <ele>369.8671875</ele>
        <time>2012-06-07T18:21:41Z</time>
      </trkpt>
      <trkpt lat="44.61998" lon="2.17432">
        <ele>364.3984375</ele>
        <time>2012-06-07T18:22:01Z</time>
      </trkpt>
      <trkpt lat="44.61996" lon="2.17391">
        <ele>364.49609375</ele>
        <time>2012-06-07T18:22:21Z</time>
      </trkpt>
      <trkpt lat="44.6192" lon="2.17169">
        <ele>354.70703125</ele>
        <time>2012-06-07T18:22:41Z</time>
      </trkpt>
      <trkpt lat="44.61907" lon="2.17059">
        <ele>349.37109375</ele>
        <time>2012-06-07T18:23:01Z</time>
      </trkpt>
      <trkpt lat="44.6193" lon="2.16857">
        <ele>344.6875</ele>
        <time>2012-06-07T18:23:21Z</time>
      </trkpt>
      <trkpt lat="44.61873" lon="2.16829">
        <ele>347.0234375</ele>
        <time>2012-06-07T18:23:41Z</time>
      </trkpt>
      <trkpt lat="44.6179" lon="2.16813">
        <ele>342.66796875</ele>
        <time>2012-06-07T18:24:01Z</time>
      </trkpt>
      <trkpt lat="44.61753" lon="2.16823">
        <ele>340.703125</ele>
        <time>2012-06-07T18:24:21Z</time>
      </trkpt>
      <trkpt lat="44.61703" lon="2.16857">
        <ele>338.5703125</ele>
        <time>2012-06-07T18:24:41Z</time>
      </trkpt>
      <trkpt lat="44.61685" lon="2.1684">
        <ele>336.9921875</ele>
        <time>2012-06-07T18:25:01Z</time>
      </trkpt>
      <trkpt lat="44.61677" lon="2.16673">
        <ele>320.44921875</ele>
        <time>2012-06-07T18:25:21Z</time>
      </trkpt>
      <trkpt lat="44.61632" lon="2.16527">
        <ele>304.4375</ele>
        <time>2012-06-07T18:25:41Z</time>
      </trkpt>
      <trkpt lat="44.61611" lon="2.16494">
        <ele>300.46484375</ele>
        <time>2012-06-07T18:26:01Z</time>
      </trkpt>
      <trkpt lat="44.61615" lon="2.16452">
        <ele>296.05859375</ele>
        <time>2012-06-07T18:26:21Z</time>
      </trkpt>
      <trkpt lat="44.6159" lon="2.16395">
        <ele>292.05859375</ele>
        <time>2012-06-07T18:26:41Z</time>
      </trkpt>
      <trkpt lat="44.61496" lon="2.16385">
        <ele>288.64453125</ele>
        <time>2012-06-07T18:27:01Z</time>
      </trkpt>
      <trkpt lat="44.61439" lon="2.16401">
        <ele>285.515625</ele>
        <time>2012-06-07T18:27:21Z</time>
      </trkpt>
      <trkpt lat="44.61398" lon="2.16428">
        <ele>282.859375</ele>
        <time>2012-06-07T18:27:41Z</time>
      </trkpt>
      <trkpt lat="44.61346" lon="2.16436">
        <ele>279.078125</ele>
        <time>2012-06-07T18:28:01Z</time>
      </trkpt>
      <trkpt lat="44.61369" lon="2.16359">
        <ele>278.27734375</ele>
        <time>2012-06-07T18:28:21Z</time>
      </trkpt>
      <trkpt lat="44.61393" lon="2.1631">
        <ele>279.01171875</ele>
        <time>2012-06-07T18:28:41Z</time>
      </trkpt>
      <trkpt lat="44.61399" lon="2.16267">
        <ele>279.2265625</ele>
        <time>2012-06-07T18:29:01Z</time>
      </trkpt>
      <trkpt lat="44.61487" lon="2.16261">
        <ele>282.5234375</ele>
        <time>2012-06-07T18:29:21Z</time>
      </trkpt>
      <trkpt lat="44.61592" lon="2.16145">
        <ele>282</ele>
        <time>2012-06-07T18:29:41Z</time>
      </trkpt>
      <trkpt lat="44.61641" lon="2.16227">
        <ele>284.9140625</ele>
        <time>2012-06-07T18:30:01Z</time>
      </trkpt>
      <trkpt lat="44.61666" lon="2.16195">
        <ele>283.76171875</ele>
        <time>2012-06-07T18:30:21Z</time>
      </trkpt>
      <trkpt lat="44.61743" lon="2.16143">
        <ele>285.51171875</ele>
        <time>2012-06-07T18:30:41Z</time>
      </trkpt>
      <trkpt lat="44.61799" lon="2.16084">
        <ele>285.76171875</ele>
        <time>2012-06-07T18:31:01Z</time>
      </trkpt>
      <trkpt lat="44.61799" lon="2.16056">
        <ele>284.6640625</ele>
        <time>2012-06-07T18:31:21Z</time>
      </trkpt>
      <trkpt lat="44.6186" lon="2.16011">
        <ele>283.984375</ele>
        <time>2012-06-07T18:31:41Z</time>
      </trkpt>
      <trkpt lat="44.61963" lon="2.15918">
        <ele>279.78515625</ele>
        <time>2012-06-07T18:32:01Z</time>
      </trkpt>
      <trkpt lat="44.62007" lon="2.15716">
        <ele>284.4921875</ele>
        <time>2012-06-07T18:32:21Z</time>
      </trkpt>
      <trkpt lat="44.6202" lon="2.15597">
        <ele>289.91015625</ele>
        <time>2012-06-07T18:32:41Z</time>
      </trkpt>
      <trkpt lat="44.62017" lon="2.15298">
        <ele>288.73046875</ele>
        <time>2012-06-07T18:33:01Z</time>
      </trkpt>
      <trkpt lat="44.62111" lon="2.15115">
        <ele>282.859375</ele>
        <time>2012-06-07T18:33:21Z</time>
      </trkpt>
      <trkpt lat="44.62132" lon="2.15054">
        <ele>280.6953125</ele>
        <time>2012-06-07T18:33:41Z</time>
      </trkpt>
      <trkpt lat="44.62129" lon="2.1502">
        <ele>278.94921875</ele>
        <time>2012-06-07T18:34:01Z</time>
      </trkpt>
      <trkpt lat="44.62166" lon="2.14876">
        <ele>269.55078125</ele>
        <time>2012-06-07T18:34:21Z</time>
      </trkpt>
      <trkpt lat="44.62181" lon="2.14775">
        <ele>261.859375</ele>
        <time>2012-06-07T18:34:41Z</time>
      </trkpt>
      <trkpt lat="44.62194" lon="2.14756">
        <ele>260.78125</ele>
        <time>2012-06-07T18:35:01Z</time>
      </trkpt>
      <trkpt lat="44.62222" lon="2.14802">
        <ele>265.671875</ele>
        <time>2012-06-07T18:35:21Z</time>
      </trkpt>
      <trkpt lat="44.62269" lon="2.14809">
        <ele>266.5078125</ele>
        <time>2012-06-07T18:35:41Z</time>
      </trkpt>
      <trkpt lat="44.6231" lon="2.14838">
        <ele>268.76171875</ele>
        <time>2012-06-07T18:36:01Z</time>
      </trkpt>
      <trkpt lat="44.62419" lon="2.14946">
        <ele>277.51171875</ele>
        <time>2012-06-07T18:36:21Z</time>
      </trkpt>
      <trkpt lat="44.62565" lon="2.14991">
        <ele>280.390625</ele>
        <time>2012-06-07T18:36:41Z</time>
      </trkpt>
      <trkpt lat="44.62575" lon="2.1501">
        <ele>281.03125</ele>
        <time>2012-06-07T18:37:01Z</time>
      </trkpt>
      <trkpt lat="44.62582" lon="2.15006">
        <ele>280.93359375</ele>
        <time>2012-06-07T18:37:21Z</time>
      </trkpt>
      <trkpt lat="44.62577" lon="2.14945">
        <ele>279.12890625</ele>
        <time>2012-06-07T18:37:41Z</time>
      </trkpt>
      <trkpt lat="44.62559" lon="2.14844">
        <ele>272.203125</ele>
        <time>2012-06-07T18:38:01Z</time>
      </trkpt>
      <trkpt lat="44.62594" lon="2.14737">
        <ele>264.484375</ele>
        <time>2012-06-07T18:38:21Z</time>
      </trkpt>
      <trkpt lat="44.62606" lon="2.14506">
        <ele>247.64453125</ele>
        <time>2012-06-07T18:38:41Z</time>
      </trkpt>
      <trkpt lat="44.62621" lon="2.14388">
        <ele>245.08984375</ele>
        <time>2012-06-07T18:39:01Z</time>
      </trkpt>
      <trkpt lat="44.62609" lon="2.14305">
        <ele>247.3203125</ele>
        <time>2012-06-07T18:39:21Z</time>
      </trkpt>
      <trkpt lat="44.62549" lon="2.14186">
        <ele>249.96484375</ele>
        <time>2012-06-07T18:39:41Z</time>
      </trkpt>
      <trkpt lat="44.62524" lon="2.14043">
        <ele>255</ele>
        <time>2012-06-07T18:40:01Z</time>
      </trkpt>
      <trkpt lat="44.62524" lon="2.14007">
        <ele>253.98828125</ele>
        <time>2012-06-07T18:40:21Z</time>
      </trkpt>
      <trkpt lat="44.6249" lon="2.13849">
        <ele>245.38671875</ele>
        <time>2012-06-07T18:40:41Z</time>
      </trkpt>
      <trkpt lat="44.62448" lon="2.13709">
        <ele>245.98828125</ele>
        <time>2012-06-07T18:41:01Z</time>
      </trkpt>
      <trkpt lat="44.62405" lon="2.13611">
        <ele>249.2265625</ele>
        <time>2012-06-07T18:41:21Z</time>
      </trkpt>
      <trkpt lat="44.6223" lon="2.1362">
        <ele>260.84765625</ele>
        <time>2012-06-07T18:41:41Z</time>
      </trkpt>
      <trkpt lat="44.62202" lon="2.13662">
        <ele>260.48046875</ele>
        <time>2012-06-07T18:42:01Z</time>
      </trkpt>
      <trkpt lat="44.62164" lon="2.13671">
        <ele>260.3828125</ele>
        <time>2012-06-07T18:42:21Z</time>
      </trkpt>
      <trkpt lat="44.62095" lon="2.13665">
        <ele>261.375</ele>
        <time>2012-06-07T18:42:41Z</time>
      </trkpt>
      <trkpt lat="44.61979" lon="2.13678">
        <ele>262.79296875</ele>
        <time>2012-06-07T18:43:01Z</time>
      </trkpt>
      <trkpt lat="44.61944" lon="2.13673">
        <ele>263.0859375</ele>
        <time>2012-06-07T18:43:21Z</time>
      </trkpt>
      <trkpt lat="44.6186" lon="2.13628">
        <ele>264.70703125</ele>
        <time>2012-06-07T18:43:41Z</time>
      </trkpt>
      <trkpt lat="44.61784" lon="2.13517">
        <ele>268.703125</ele>
        <time>2012-06-07T18:44:01Z</time>
      </trkpt>
      <trkpt lat="44.61769" lon="2.1348">
        <ele>270.46484375</ele>
        <time>2012-06-07T18:44:21Z</time>
      </trkpt>
      <trkpt lat="44.61797" lon="2.1346">
        <ele>270.7578125</ele>
        <time>2012-06-07T18:44:41Z</time>
      </trkpt>
      <trkpt lat="44.61839" lon="2.13383">
        <ele>271.96484375</ele>
        <time>2012-06-07T18:45:01Z</time>
      </trkpt>
      <trkpt lat="44.61895" lon="2.13329">
        <ele>269.95703125</ele>
        <time>2012-06-07T18:45:21Z</time>
      </trkpt>
      <trkpt lat="44.61965" lon="2.13222">
        <ele>264.71875</ele>
        <time>2012-06-07T18:45:41Z</time>
      </trkpt>
      <trkpt lat="44.61941" lon="2.13195">
        <ele>263.87109375</ele>
        <time>2012-06-07T18:46:01Z</time>
      </trkpt>
      <trkpt lat="44.61987" lon="2.1308">
        <ele>258.37890625</ele>
        <time>2012-06-07T18:46:21Z</time>
      </trkpt>
      <trkpt lat="44.62015" lon="2.13052">
        <ele>258.48828125</ele>
        <time>2012-06-07T18:46:41Z</time>
      </trkpt>
      <trkpt lat="44.62005" lon="2.1301">
        <ele>260.91796875</ele>
        <time>2012-06-07T18:47:01Z</time>
      </trkpt>
      <trkpt lat="44.62017" lon="2.12999">
        <ele>260.51171875</ele>
        <time>2012-06-07T18:47:21Z</time>
      </trkpt>
      <trkpt lat="44.62005" lon="2.12956">
        <ele>261.8203125</ele>
        <time>2012-06-07T18:47:41Z</time>
      </trkpt>
      <trkpt lat="44.62028" lon="2.12753">
        <ele>267.57421875</ele>
        <time>2012-06-07T18:48:01Z</time>
      </trkpt>
      <trkpt lat="44.62016" lon="2.12658">
        <ele>271.47265625</ele>
        <time>2012-06-07T18:48:21Z</time>
      </trkpt>
      <trkpt lat="44.61971" lon="2.12499">
        <ele>281.3515625</ele>
        <time>2012-06-07T18:48:41Z</time>
      </trkpt>
      <trkpt lat="44.61917" lon="2.12442">
        <ele>283.734375</ele>
        <time>2012-06-07T18:49:01Z</time>
      </trkpt>
      <trkpt lat="44.61847" lon="2.12454">
        <ele>286.00390625</ele>
        <time>2012-06-07T18:49:21Z</time>
      </trkpt>
      <trkpt lat="44.6181" lon="2.12441">
        <ele>286</ele>
        <time>2012-06-07T18:49:41Z</time>
      </trkpt>
      <trkpt lat="44.61748" lon="2.12348">
        <ele>286.203125</ele>
        <time>2012-06-07T18:50:01Z</time>
      </trkpt>
      <trkpt lat="44.61721" lon="2.12341">
        <ele>287.1796875</ele>
        <time>2012-06-07T18:50:21Z</time>
      </trkpt>
      <trkpt lat="44.61667" lon="2.12299">
        <ele>286.80078125</ele>
        <time>2012-06-07T18:50:41Z</time>
      </trkpt>
      <trkpt lat="44.61489" lon="2.12632">
        <ele>283.1171875</ele>
        <time>2012-06-07T18:51:01Z</time>
      </trkpt>
      <trkpt lat="44.61474" lon="2.12726">
        <ele>281.93359375</ele>
        <time>2012-06-07T18:51:21Z</time>
      </trkpt>
      <trkpt lat="44.61435" lon="2.12641">
        <ele>281.90625</ele>
        <time>2012-06-07T18:51:41Z</time>
      </trkpt>
      <trkpt lat="44.61391" lon="2.12417">
        <ele>270.421875</ele>
        <time>2012-06-07T18:52:01Z</time>
      </trkpt>
      <trkpt lat="44.61338" lon="2.1232">
        <ele>262.87890625</ele>
        <time>2012-06-07T18:52:21Z</time>
      </trkpt>
      <trkpt lat="44.61291" lon="2.12258">
        <ele>265.77734375</ele>
        <time>2012-06-07T18:52:41Z</time>
      </trkpt>
      <trkpt lat="44.61253" lon="2.12166">
        <ele>270.03515625</ele>
        <time>2012-06-07T18:53:01Z</time>
      </trkpt>
      <trkpt lat="44.61202" lon="2.12089">
        <ele>272.5078125</ele>
        <time>2012-06-07T18:53:21Z</time>
      </trkpt>
      <trkpt lat="44.61138" lon="2.1188">
        <ele>277.9609375</ele>
        <time>2012-06-07T18:53:41Z</time>
      </trkpt>
      <trkpt lat="44.61123" lon="2.11801">
        <ele>284.3828125</ele>
        <time>2012-06-07T18:54:01Z</time>
      </trkpt>
      <trkpt lat="44.61023" lon="2.11822">
        <ele>286.2421875</ele>
        <time>2012-06-07T18:54:21Z</time>
      </trkpt>
      <trkpt lat="44.60977" lon="2.11847">
        <ele>290.91796875</ele>
        <time>2012-06-07T18:54:41Z</time>
      </trkpt>
      <trkpt lat="44.60953" lon="2.11727">
        <ele>292.36328125</ele>
        <time>2012-06-07T18:55:01Z</time>
      </trkpt>
      <trkpt lat="44.60958" lon="2.11676">
        <ele>290.64453125</ele>
        <time>2012-06-07T18:55:21Z</time>
      </trkpt>
      <trkpt lat="44.61036" lon="2.11524">
        <ele>293.640625</ele>
        <time>2012-06-07T18:55:41Z</time>
      </trkpt>
      <trkpt lat="44.61198" lon="2.11293">
        <ele>310.8046875</ele>
        <time>2012-06-07T18:56:01Z</time>
      </trkpt>
      <trkpt lat="44.61224" lon="2.11228">
        <ele>312.69140625</ele>
        <time>2012-06-07T18:56:21Z</time>
      </trkpt>
      <trkpt lat="44.61253" lon="2.11232">
        <ele>313.96484375</ele>
        <time>2012-06-07T18:56:41Z</time>
      </trkpt>
      <trkpt lat="44.615" lon="2.11072">
        <ele>336.515625</ele>
        <time>2012-06-07T18:57:01Z</time>
      </trkpt>
      <trkpt lat="44.61604" lon="2.10996">
        <ele>340.60546875</ele>
        <time>2012-06-07T18:57:21Z</time>
      </trkpt>
      <trkpt lat="44.61649" lon="2.10973">
        <ele>340.89453125</ele>
        <time>2012-06-07T18:57:41Z</time>
      </trkpt>
      <trkpt lat="44.61728" lon="2.10838">
        <ele>343</ele>
        <time>2012-06-07T18:58:01Z</time>
      </trkpt>
      <trkpt lat="44.61759" lon="2.10851">
        <ele>342.6875</ele>
        <time>2012-06-07T18:58:21Z</time>
      </trkpt>
      <trkpt lat="44.61887" lon="2.10827">
        <ele>343.60546875</ele>
        <time>2012-06-07T18:58:41Z</time>
      </trkpt>
      <trkpt lat="44.62004" lon="2.10759">
        <ele>345.01171875</ele>
        <time>2012-06-07T18:59:01Z</time>
      </trkpt>
      <trkpt lat="44.61939" lon="2.10596">
        <ele>351.07421875</ele>
        <time>2012-06-07T18:59:21Z</time>
      </trkpt>
      <trkpt lat="44.6184" lon="2.10453">
        <ele>342.9921875</ele>
        <time>2012-06-07T18:59:41Z</time>
      </trkpt>
      <trkpt lat="44.61748" lon="2.10091">
        <ele>346.2890625</ele>
        <time>2012-06-07T19:00:01Z</time>
      </trkpt>
      <trkpt lat="44.61645" lon="2.09871">
        <ele>347.609375</ele>
        <time>2012-06-07T19:00:21Z</time>
      </trkpt>
      <trkpt lat="44.61482" lon="2.09637">
        <ele>359.26171875</ele>
        <time>2012-06-07T19:00:41Z</time>
      </trkpt>
      <trkpt lat="44.61472" lon="2.09581">
        <ele>361.94140625</ele>
        <time>2012-06-07T19:01:01Z</time>
      </trkpt>
      <trkpt lat="44.61516" lon="2.09009">
        <ele>380.73828125</ele>
        <time>2012-06-07T19:01:21Z</time>
      </trkpt>
      <trkpt lat="44.61456" lon="2.08907">
        <ele>387.8046875</ele>
        <time>2012-06-07T19:01:41Z</time>
      </trkpt>
      <trkpt lat="44.61428" lon="2.08873">
        <ele>386.80859375</ele>
        <time>2012-06-07T19:02:01Z</time>
      </trkpt>
      <trkpt lat="44.61387" lon="2.08694">
        <ele>385.10546875</ele>
        <time>2012-06-07T19:02:21Z</time>
      </trkpt>
      <trkpt lat="44.61322" lon="2.08734">
        <ele>380.99609375</ele>
        <time>2012-06-07T19:02:41Z</time>
      </trkpt>
      <trkpt lat="44.61296" lon="2.08694">
        <ele>384.6640625</ele>
        <time>2012-06-07T19:03:01Z</time>
      </trkpt>
      <trkpt lat="44.61235" lon="2.0869">
        <ele>380.8125</ele>
        <time>2012-06-07T19:03:21Z</time>
      </trkpt>
      <trkpt lat="44.61154" lon="2.08671">
        <ele>372.7890625</ele>
        <time>2012-06-07T19:03:41Z</time>
      </trkpt>
      <trkpt lat="44.61212" lon="2.08575">
        <ele>378.48046875</ele>
        <time>2012-06-07T19:04:01Z</time>
      </trkpt>
      <trkpt lat="44.61215" lon="2.08534">
        <ele>381.1640625</ele>
        <time>2012-06-07T19:04:21Z</time>
      </trkpt>
      <trkpt lat="44.61199" lon="2.08516">
        <ele>380.77734375</ele>
        <time>2012-06-07T19:04:41Z</time>
      </trkpt>
      <trkpt lat="44.61189" lon="2.08426">
        <ele>382.5859375</ele>
        <time>2012-06-07T19:05:01Z</time>
      </trkpt>
      <trkpt lat="44.612" lon="2.08314">
        <ele>380.08984375</ele>
        <time>2012-06-07T19:05:21Z</time>
      </trkpt>
      <trkpt lat="44.61227" lon="2.0819">
        <ele>379.08984375</ele>
        <time>2012-06-07T19:05:41Z</time>
      </trkpt>
      <trkpt lat="44.61206" lon="2.08127">
        <ele>376.44921875</ele>
        <time>2012-06-07T19:06:01Z</time>
      </trkpt>
      <trkpt lat="44.61135" lon="2.08009">
        <ele>379.11328125</ele>
        <time>2012-06-07T19:06:21Z</time>
      </trkpt>
      <trkpt lat="44.61129" lon="2.0794">
        <ele>381.09765625</ele>
        <time>2012-06-07T19:06:41Z</time>
      </trkpt>
      <trkpt lat="44.61098" lon="2.07934">
        <ele>380.3125</ele>
        <time>2012-06-07T19:07:01Z</time>
      </trkpt>
      <trkpt lat="44.61085" lon="2.07939">
        <ele>379.83203125</ele>
        <time>2012-06-07T19:07:21Z</time>
      </trkpt>
      <trkpt lat="44.6092" lon="2.07952">
        <ele>367.796875</ele>
        <time>2012-06-07T19:07:41Z</time>
      </trkpt>
      <trkpt lat="44.60795" lon="2.0784">
        <ele>352.3125</ele>
        <time>2012-06-07T19:08:01Z</time>
      </trkpt>
      <trkpt lat="44.60759" lon="2.07818">
        <ele>347.359375</ele>
        <time>2012-06-07T19:08:21Z</time>
      </trkpt>
      <trkpt lat="44.60688" lon="2.07744">
        <ele>331.73828125</ele>
        <time>2012-06-07T19:08:41Z</time>
      </trkpt>
      <trkpt lat="44.60685" lon="2.07691">
        <ele>336.22265625</ele>
        <time>2012-06-07T19:09:01Z</time>
      </trkpt>
      <trkpt lat="44.60652" lon="2.07645">
        <ele>335.890625</ele>
        <time>2012-06-07T19:09:21Z</time>
      </trkpt>
      <trkpt lat="44.606" lon="2.07625">
        <ele>335.19140625</ele>
        <time>2012-06-07T19:09:41Z</time>
      </trkpt>
      <trkpt lat="44.60581" lon="2.07592">
        <ele>340.15234375</ele>
        <time>2012-06-07T19:10:01Z</time>
      </trkpt>
      <trkpt lat="44.60508" lon="2.0738">
        <ele>350.8984375</ele>
        <time>2012-06-07T19:10:21Z</time>
      </trkpt>
      <trkpt lat="44.60487" lon="2.07276">
        <ele>351.37109375</ele>
        <time>2012-06-07T19:10:41Z</time>
      </trkpt>
      <trkpt lat="44.60641" lon="2.07319">
        <ele>354.921875</ele>
        <time>2012-06-07T19:11:01Z</time>
      </trkpt>
      <trkpt lat="44.60653" lon="2.07316">
        <ele>354.52734375</ele>
        <time>2012-06-07T19:11:21Z</time>
      </trkpt>
      <trkpt lat="44.6062" lon="2.07241">
        <ele>351.09375</ele>
        <time>2012-06-07T19:11:41Z</time>
      </trkpt>
      <trkpt lat="44.60484" lon="2.07114">
        <ele>350.91015625</ele>
        <time>2012-06-07T19:12:01Z</time>
      </trkpt>
      <trkpt lat="44.60415" lon="2.06994">
        <ele>351.7734375</ele>
        <time>2012-06-07T19:12:21Z</time>
      </trkpt>
      <trkpt lat="44.60342" lon="2.06828">
        <ele>349.8515625</ele>
        <time>2012-06-07T19:12:41Z</time>
      </trkpt>
      <trkpt lat="44.60278" lon="2.06762">
        <ele>350</ele>
        <time>2012-06-07T19:13:01Z</time>
      </trkpt>
      <trkpt lat="44.60053" lon="2.06713">
        <ele>342.9375</ele>
        <time>2012-06-07T19:13:21Z</time>
      </trkpt>
      <trkpt lat="44.59989" lon="2.06642">
        <ele>339.0078125</ele>
        <time>2012-06-07T19:13:41Z</time>
      </trkpt>
      <trkpt lat="44.60127" lon="2.06436">
        <ele>330.84765625</ele>
        <time>2012-06-07T19:14:01Z</time>
      </trkpt>
      <trkpt lat="44.60184" lon="2.0645">
        <ele>333.91796875</ele>
        <time>2012-06-07T19:14:21Z</time>
      </trkpt>
      <trkpt lat="44.60237" lon="2.06403">
        <ele>332.08203125</ele>
        <time>2012-06-07T19:14:41Z</time>
      </trkpt>
      <trkpt lat="44.60227" lon="2.06349">
        <ele>327.1796875</ele>
        <time>2012-06-07T19:15:01Z</time>
      </trkpt>
      <trkpt lat="44.60269" lon="2.06311">
        <ele>323.6875</ele>
        <time>2012-06-07T19:15:21Z</time>
      </trkpt>
      <trkpt lat="44.60306" lon="2.06304">
        <ele>323.86328125</ele>
        <time>2012-06-07T19:15:41Z</time>
      </trkpt>
      <trkpt lat="44.60343" lon="2.06267">
        <ele>320.3828125</ele>
        <time>2012-06-07T19:16:01Z</time>
      </trkpt>
      <trkpt lat="44.60387" lon="2.06196">
        <ele>312.2734375</ele>
        <time>2012-06-07T19:16:21Z</time>
      </trkpt>
      <trkpt lat="44.60446" lon="2.06029">
        <ele>298.421875</ele>
        <time>2012-06-07T19:16:41Z</time>
      </trkpt>
      <trkpt lat="44.60483" lon="2.05969">
        <ele>289.63671875</ele>
        <time>2012-06-07T19:17:01Z</time>
      </trkpt>
      <trkpt lat="44.6051" lon="2.0586">
        <ele>278.39453125</ele>
        <time>2012-06-07T19:17:21Z</time>
      </trkpt>
      <trkpt lat="44.60523" lon="2.05848">
        <ele>275.109375</ele>
        <time>2012-06-07T19:17:41Z</time>
      </trkpt>
      <trkpt lat="44.60567" lon="2.05696">
        <ele>259.6015625</ele>
        <time>2012-06-07T19:18:01Z</time>
      </trkpt>
      <trkpt lat="44.60573" lon="2.05572">
        <ele>254.25390625</ele>
        <time>2012-06-07T19:18:21Z</time>
      </trkpt>
      <trkpt lat="44.60491" lon="2.05467">
        <ele>250.43359375</ele>
        <time>2012-06-07T19:18:41Z</time>
      </trkpt>
      <trkpt lat="44.60461" lon="2.05388">
        <ele>244.60546875</ele>
        <time>2012-06-07T19:19:01Z</time>
      </trkpt>
      <trkpt lat="44.6046" lon="2.05321">
        <ele>245.91796875</ele>
        <time>2012-06-07T19:19:21Z</time>
      </trkpt>
      <trkpt lat="44.6052" lon="2.05287">
        <ele>249.58984375</ele>
        <time>2012-06-07T19:19:41Z</time>
      </trkpt>
      <trkpt lat="44.60609" lon="2.05212">
        <ele>255.9609375</ele>
        <time>2012-06-07T19:20:01Z</time>
      </trkpt>
      <trkpt lat="44.60638" lon="2.05143">
        <ele>257.921875</ele>
        <time>2012-06-07T19:20:21Z</time>
      </trkpt>
      <trkpt lat="44.60638" lon="2.05084">
        <ele>258.375</ele>
        <time>2012-06-07T19:20:41Z</time>
      </trkpt>
      <trkpt lat="44.60613" lon="2.04977">
        <ele>258.83984375</ele>
        <time>2012-06-07T19:21:01Z</time>
      </trkpt>
      <trkpt lat="44.60612" lon="2.04661">
        <ele>246.43359375</ele>
        <time>2012-06-07T19:21:21Z</time>
      </trkpt>
      <trkpt lat="44.60581" lon="2.04515">
        <ele>240.82421875</ele>
        <time>2012-06-07T19:21:41Z</time>
      </trkpt>
      <trkpt lat="44.60573" lon="2.04398">
        <ele>234.75390625</ele>
        <time>2012-06-07T19:22:01Z</time>
      </trkpt>
      <trkpt lat="44.60548" lon="2.0425">
        <ele>228.34375</ele>
        <time>2012-06-07T19:22:21Z</time>
      </trkpt>
      <trkpt lat="44.60557" lon="2.04077">
        <ele>218.6484375</ele>
        <time>2012-06-07T19:22:41Z</time>
      </trkpt>
      <trkpt lat="44.60573" lon="2.03997">
        <ele>213.984375</ele>
        <time>2012-06-07T19:23:01Z</time>
      </trkpt>
      <trkpt lat="44.60568" lon="2.0394">
        <ele>211.7421875</ele>
        <time>2012-06-07T19:23:21Z</time>
      </trkpt>
      <trkpt lat="44.60599" lon="2.03892">
        <ele>206.11328125</ele>
        <time>2012-06-07T19:23:41Z</time>
      </trkpt>
      <trkpt lat="44.60635" lon="2.03715">
        <ele>198.296875</ele>
        <time>2012-06-07T19:24:01Z</time>
      </trkpt>
      <trkpt lat="44.60652" lon="2.03684">
        <ele>196.7421875</ele>
        <time>2012-06-07T19:24:21Z</time>
      </trkpt>
      <trkpt lat="44.60625" lon="2.03403">
        <ele>196.2890625</ele>
        <time>2012-06-07T19:24:41Z</time>
      </trkpt>
      <trkpt lat="44.60708" lon="2.03386">
        <ele>195.3125</ele>
        <time>2012-06-07T19:25:01Z</time>
      </trkpt>
      <trkpt lat="44.60744" lon="2.03105">
        <ele>196</ele>
        <time>2012-06-07T19:25:21Z</time>
      </trkpt>
    </trkseg>
  </trk>
</gpx>